DAL47 EHAM-KJFK
Flight info
| Callsign | DAL47 |
|---|---|
| Flight time | 7h 48m |
| Altitude | 38000 |
| Route | BERGI L60 PENIL M144 BAGSO DCT OLAPO DCT DOGAL/M082F390 DCT 54N020W 53N030W 5130N04000W 50N050W DCT ELSIR/N0465F400 N402C ALLEX DCT ENE PARCH4 |
| Aircraft | A333/H-SDE3GHIJ2J3J5M1RVWXY/LB2D1 |
Departure
| Time | 2026-05-07 08:41 |
|---|---|
| Airport | Amsterdam Airport Schiphol (EHAM) |
Arrival
| Time | 2026-05-07 16:29 |
|---|---|
| Airport | John F. Kennedy International Airport (KJFK) |
| Time | Latitude | Longitude | Altitude | Speed | Heading |
|---|---|---|---|---|---|
| 2026-05-07 07:45 | 52.30927 | 4.76617 | 1 ft | 0 kts | 179° |
| 2026-05-07 08:18 | 52.30928 | 4.76617 | -26 ft | 1 kts | 179° |
| 2026-05-07 08:18 | 52.30950 | 4.76620 | 2 ft | 4 kts | 198° |
| 2026-05-07 08:18 | 52.30973 | 4.76640 | 3 ft | 4 kts | 227° |
| 2026-05-07 08:18 | 52.30987 | 4.76676 | 2 ft | 4 kts | 250° |
| 2026-05-07 08:19 | 52.30994 | 4.76718 | 2 ft | 4 kts | 261° |
| 2026-05-07 08:19 | 52.30998 | 4.76762 | 1 ft | 4 kts | 257° |
| 2026-05-07 08:19 | 52.31006 | 4.76795 | 3 ft | 4 kts | 198° |
| 2026-05-07 08:19 | 52.31025 | 4.76797 | 3 ft | 4 kts | 184° |
| 2026-05-07 08:20 | 52.31052 | 4.76804 | 4 ft | 4 kts | 194° |
| 2026-05-07 08:20 | 52.31077 | 4.76817 | 3 ft | 4 kts | 204° |
| 2026-05-07 08:20 | 52.31101 | 4.76837 | 3 ft | 4 kts | 212° |
| 2026-05-07 08:20 | 52.31123 | 4.76862 | 3 ft | 4 kts | 220° |
| 2026-05-07 08:21 | 52.31143 | 4.76892 | 3 ft | 4 kts | 227° |
| 2026-05-07 08:21 | 52.31160 | 4.76926 | 5 ft | 4 kts | 232° |
| 2026-05-07 08:21 | 52.31176 | 4.76961 | 3 ft | 4 kts | 228° |
| 2026-05-07 08:21 | 52.31188 | 4.76979 | 1 ft | 1 kts | 213° |
| 2026-05-07 08:22 | 52.31166 | 4.76969 | 4 ft | 4 kts | 188° |
| 2026-05-07 08:22 | 52.31140 | 4.76972 | 2 ft | 4 kts | 169° |
| 2026-05-07 08:22 | 52.31115 | 4.76988 | 1 ft | 4 kts | 152° |
| 2026-05-07 08:22 | 52.31095 | 4.77017 | 1 ft | 4 kts | 130° |
| 2026-05-07 08:23 | 52.31084 | 4.77056 | 1 ft | 4 kts | 107° |
| 2026-05-07 08:23 | 52.31081 | 4.77095 | 1 ft | 2 kts | 91° |
| 2026-05-07 08:23 | 52.31081 | 4.77096 | 1 ft | 1 kts | 91° |
| 2026-05-07 08:29 | 52.31081 | 4.77111 | 1 ft | 2 kts | 91° |
| 2026-05-07 08:30 | 52.31081 | 4.77138 | 1 ft | 3 kts | 91° |
| 2026-05-07 08:30 | 52.31080 | 4.77169 | 1 ft | 3 kts | 91° |
| 2026-05-07 08:30 | 52.31080 | 4.77203 | 1 ft | 3 kts | 91° |
| 2026-05-07 08:30 | 52.31079 | 4.77243 | 1 ft | 5 kts | 91° |
| 2026-05-07 08:31 | 52.31079 | 4.77322 | 1 ft | 7 kts | 90° |
| 2026-05-07 08:31 | 52.31076 | 4.77405 | 1 ft | 7 kts | 101° |
| 2026-05-07 08:31 | 52.31049 | 4.77465 | 1 ft | 7 kts | 147° |
| 2026-05-07 08:31 | 52.30988 | 4.77481 | 1 ft | 10 kts | 180° |
| 2026-05-07 08:32 | 52.30907 | 4.77477 | 1 ft | 13 kts | 181° |
| 2026-05-07 08:32 | 52.30816 | 4.77471 | 1 ft | 13 kts | 182° |
| 2026-05-07 08:32 | 52.30725 | 4.77466 | 1 ft | 13 kts | 182° |
| 2026-05-07 08:32 | 52.30653 | 4.77435 | 1 ft | 10 kts | 212° |
| 2026-05-07 08:33 | 52.30609 | 4.77353 | 1 ft | 10 kts | 235° |
| 2026-05-07 08:33 | 52.30571 | 4.77259 | 1 ft | 10 kts | 238° |
| 2026-05-07 08:33 | 52.30531 | 4.77147 | 1 ft | 13 kts | 240° |
| 2026-05-07 08:33 | 52.30481 | 4.77011 | 1 ft | 14 kts | 238° |
| 2026-05-07 08:34 | 52.30430 | 4.76874 | 1 ft | 15 kts | 238° |
| 2026-05-07 08:34 | 52.30377 | 4.76733 | 1 ft | 15 kts | 238° |
| 2026-05-07 08:34 | 52.30322 | 4.76589 | 1 ft | 15 kts | 238° |
| 2026-05-07 08:34 | 52.30262 | 4.76434 | 1 ft | 17 kts | 236° |
| 2026-05-07 08:35 | 52.30198 | 4.76269 | 1 ft | 18 kts | 238° |
| 2026-05-07 08:35 | 52.30132 | 4.76095 | 1 ft | 18 kts | 238° |
| 2026-05-07 08:35 | 52.30067 | 4.75924 | 1 ft | 18 kts | 238° |
| 2026-05-07 08:35 | 52.30002 | 4.75754 | 1 ft | 17 kts | 238° |
| 2026-05-07 08:36 | 52.29937 | 4.75589 | 1 ft | 17 kts | 237° |
| 2026-05-07 08:36 | 52.29874 | 4.75425 | 1 ft | 17 kts | 238° |
| 2026-05-07 08:36 | 52.29834 | 4.75249 | 1 ft | 16 kts | 271° |
| 2026-05-07 08:36 | 52.29890 | 4.75098 | 1 ft | 16 kts | 311° |
| 2026-05-07 08:37 | 52.29964 | 4.74964 | 1 ft | 16 kts | 311° |
| 2026-05-07 08:37 | 52.30040 | 4.74824 | 1 ft | 17 kts | 311° |
| 2026-05-07 08:37 | 52.30118 | 4.74680 | 1 ft | 17 kts | 311° |
| 2026-05-07 08:37 | 52.30195 | 4.74537 | 1 ft | 17 kts | 310° |
| 2026-05-07 08:38 | 52.30269 | 4.74395 | 1 ft | 16 kts | 311° |
| 2026-05-07 08:38 | 52.30334 | 4.74256 | 1 ft | 14 kts | 295° |
| 2026-05-07 08:38 | 52.30334 | 4.74110 | 1 ft | 13 kts | 249° |
| 2026-05-07 08:38 | 52.30283 | 4.73996 | 1 ft | 12 kts | 221° |
| 2026-05-07 08:39 | 52.30218 | 4.73911 | 1 ft | 11 kts | 221° |
| 2026-05-07 08:39 | 52.30182 | 4.73811 | 1 ft | 9 kts | 262° |
| 2026-05-07 08:39 | 52.30200 | 4.73745 | 0 ft | 6 kts | 328° |
| 2026-05-07 08:39 | 52.30250 | 4.73739 | -2 ft | 9 kts | 2° |
| 2026-05-07 08:40 | 52.30322 | 4.73746 | -4 ft | 12 kts | 3° |
| 2026-05-07 08:40 | 52.30498 | 4.73762 | -1 ft | 49 kts | 3° |
| 2026-05-07 08:40 | 52.31018 | 4.73812 | 4 ft | 99 kts | 3° |
| 2026-05-07 08:40 | 52.31863 | 4.73890 | 2 ft | 142 kts | 3° |
| 2026-05-07 08:41 | 52.32938 | 4.73990 | 263 ft | 158 kts | 4° |
| 2026-05-07 08:41 | 52.34020 | 4.74042 | 854 ft | 155 kts | 2° |
| 2026-05-07 08:41 | 52.35111 | 4.74080 | 1363 ft | 161 kts | 1° |
| 2026-05-07 08:41 | 52.36230 | 4.73789 | 1809 ft | 166 kts | 340° |
| 2026-05-07 08:42 | 52.37311 | 4.73099 | 2314 ft | 167 kts | 339° |
| 2026-05-07 08:42 | 52.38370 | 4.72308 | 2843 ft | 170 kts | 339° |
| 2026-05-07 08:42 | 52.39527 | 4.71611 | 3046 ft | 185 kts | 343° |
| 2026-05-07 08:42 | 52.40806 | 4.70914 | 3258 ft | 203 kts | 343° |
| 2026-05-07 08:43 | 52.42194 | 4.70182 | 3476 ft | 222 kts | 343° |
| 2026-05-07 08:43 | 52.43740 | 4.69375 | 3668 ft | 244 kts | 343° |
| 2026-05-07 08:43 | 52.45357 | 4.68411 | 4203 ft | 251 kts | 334° |
| 2026-05-07 08:43 | 52.46908 | 4.67032 | 4893 ft | 255 kts | 329° |
| 2026-05-07 08:44 | 52.48427 | 4.65507 | 5659 ft | 258 kts | 328° |
| 2026-05-07 08:44 | 52.49950 | 4.63878 | 6293 ft | 264 kts | 326° |
| 2026-05-07 08:44 | 52.51489 | 4.62178 | 6943 ft | 269 kts | 326° |
| 2026-05-07 08:44 | 52.53040 | 4.60438 | 7671 ft | 272 kts | 325° |
| 2026-05-07 08:45 | 52.54607 | 4.58672 | 8392 ft | 274 kts | 325° |
| 2026-05-07 08:45 | 52.56194 | 4.56886 | 9083 ft | 278 kts | 325° |
| 2026-05-07 08:45 | 52.57776 | 4.55109 | 9802 ft | 281 kts | 325° |
| 2026-05-07 08:45 | 52.59407 | 4.53281 | 10350 ft | 289 kts | 325° |
| 2026-05-07 08:46 | 52.61119 | 4.51364 | 10613 ft | 306 kts | 325° |
| 2026-05-07 08:46 | 52.62928 | 4.49336 | 10875 ft | 323 kts | 325° |
| 2026-05-07 08:46 | 52.64830 | 4.47206 | 11185 ft | 337 kts | 325° |
| 2026-05-07 08:46 | 52.66785 | 4.45013 | 11700 ft | 343 kts | 325° |
| 2026-05-07 08:47 | 52.68771 | 4.42784 | 12287 ft | 347 kts | 325° |
| 2026-05-07 08:47 | 52.70771 | 4.40537 | 12960 ft | 348 kts | 325° |
| 2026-05-07 08:47 | 52.72684 | 4.38172 | 13573 ft | 351 kts | 318° |
| 2026-05-07 08:47 | 52.74353 | 4.35233 | 14174 ft | 352 kts | 306° |
| 2026-05-07 08:48 | 52.75606 | 4.31767 | 14723 ft | 354 kts | 296° |
| 2026-05-07 08:48 | 52.76587 | 4.28024 | 15223 ft | 357 kts | 291° |
| 2026-05-07 08:48 | 52.77441 | 4.24122 | 15611 ft | 364 kts | 289° |
| 2026-05-07 08:48 | 52.78224 | 4.20146 | 16227 ft | 363 kts | 288° |
| 2026-05-07 08:49 | 52.78981 | 4.16150 | 16695 ft | 368 kts | 287° |
| 2026-05-07 08:49 | 52.79750 | 4.12093 | 17154 ft | 372 kts | 287° |
| 2026-05-07 08:49 | 52.80538 | 4.07996 | 17619 ft | 376 kts | 288° |
| 2026-05-07 08:49 | 52.81343 | 4.03881 | 18201 ft | 375 kts | 288° |
| 2026-05-07 08:50 | 52.82143 | 3.99832 | 18687 ft | 378 kts | 288° |
| 2026-05-07 08:50 | 52.82969 | 3.95673 | 19038 ft | 382 kts | 288° |
| 2026-05-07 08:50 | 52.83802 | 3.91491 | 19485 ft | 383 kts | 288° |
| 2026-05-07 08:50 | 52.84637 | 3.87295 | 19928 ft | 385 kts | 288° |
| 2026-05-07 08:51 | 52.85478 | 3.83056 | 20263 ft | 390 kts | 288° |
| 2026-05-07 08:51 | 52.86327 | 3.78770 | 20623 ft | 394 kts | 288° |
| 2026-05-07 08:51 | 52.87179 | 3.74452 | 21072 ft | 395 kts | 288° |
| 2026-05-07 08:51 | 52.88033 | 3.70110 | 21419 ft | 399 kts | 288° |
| 2026-05-07 08:52 | 52.88884 | 3.65778 | 21803 ft | 401 kts | 288° |
| 2026-05-07 08:52 | 52.89746 | 3.61373 | 22185 ft | 404 kts | 288° |
| 2026-05-07 08:52 | 52.90613 | 3.56933 | 22591 ft | 406 kts | 288° |
| 2026-05-07 08:52 | 52.91485 | 3.52461 | 22938 ft | 409 kts | 288° |
| 2026-05-07 08:53 | 52.92361 | 3.47955 | 23300 ft | 412 kts | 288° |
| 2026-05-07 08:53 | 52.93241 | 3.43419 | 23648 ft | 415 kts | 288° |
| 2026-05-07 08:53 | 52.94127 | 3.38844 | 23948 ft | 418 kts | 288° |
| 2026-05-07 08:53 | 52.95014 | 3.34249 | 24240 ft | 420 kts | 288° |
| 2026-05-07 08:54 | 52.95904 | 3.29626 | 24549 ft | 422 kts | 288° |
| 2026-05-07 08:54 | 52.96797 | 3.24983 | 24866 ft | 423 kts | 288° |
| 2026-05-07 08:54 | 52.97678 | 3.20385 | 25156 ft | 425 kts | 288° |
| 2026-05-07 08:54 | 52.98574 | 3.15694 | 25457 ft | 427 kts | 289° |
| 2026-05-07 08:55 | 52.99473 | 3.10982 | 25747 ft | 429 kts | 289° |
| 2026-05-07 08:55 | 53.00374 | 3.06245 | 26012 ft | 431 kts | 289° |
| 2026-05-07 08:55 | 53.01278 | 3.01484 | 26291 ft | 433 kts | 288° |
| 2026-05-07 08:55 | 53.02183 | 2.96702 | 26569 ft | 435 kts | 288° |
| 2026-05-07 08:56 | 53.03092 | 2.91887 | 26869 ft | 437 kts | 288° |
| 2026-05-07 08:56 | 53.04001 | 2.87058 | 27138 ft | 439 kts | 288° |
| 2026-05-07 08:56 | 53.04913 | 2.82204 | 27417 ft | 441 kts | 288° |
| 2026-05-07 08:56 | 53.05813 | 2.77396 | 27674 ft | 443 kts | 288° |
| 2026-05-07 08:57 | 53.06728 | 2.72498 | 27952 ft | 444 kts | 288° |
| 2026-05-07 08:57 | 53.07644 | 2.67586 | 28211 ft | 446 kts | 288° |
| 2026-05-07 08:57 | 53.08562 | 2.62645 | 28482 ft | 448 kts | 288° |
| 2026-05-07 08:57 | 53.09482 | 2.57684 | 28753 ft | 450 kts | 288° |
| 2026-05-07 08:58 | 53.10388 | 2.52694 | 28979 ft | 452 kts | 286° |
| 2026-05-07 08:58 | 53.11033 | 2.47552 | 29211 ft | 455 kts | 281° |
| 2026-05-07 08:58 | 53.11543 | 2.42343 | 29460 ft | 457 kts | 280° |
| 2026-05-07 08:58 | 53.11999 | 2.37170 | 29694 ft | 459 kts | 279° |
| 2026-05-07 08:59 | 53.12432 | 2.31904 | 29958 ft | 461 kts | 279° |
| 2026-05-07 08:59 | 53.12854 | 2.26604 | 30171 ft | 462 kts | 279° |
| 2026-05-07 08:59 | 53.13273 | 2.21288 | 30372 ft | 464 kts | 279° |
| 2026-05-07 08:59 | 53.13692 | 2.15954 | 30550 ft | 466 kts | 279° |
| 2026-05-07 09:00 | 53.14115 | 2.10599 | 30754 ft | 467 kts | 279° |
| 2026-05-07 09:00 | 53.14540 | 2.05220 | 30936 ft | 469 kts | 279° |
| 2026-05-07 09:00 | 53.14966 | 1.99828 | 31117 ft | 471 kts | 279° |
| 2026-05-07 09:00 | 53.15392 | 1.94404 | 31291 ft | 472 kts | 279° |
| 2026-05-07 09:01 | 53.15811 | 1.89044 | 31479 ft | 474 kts | 278° |
| 2026-05-07 09:01 | 53.16235 | 1.83592 | 31664 ft | 475 kts | 278° |
| 2026-05-07 09:01 | 53.16658 | 1.78126 | 31903 ft | 475 kts | 278° |
| 2026-05-07 09:01 | 53.17077 | 1.72672 | 32157 ft | 475 kts | 278° |
| 2026-05-07 09:02 | 53.17493 | 1.67216 | 32413 ft | 474 kts | 278° |
| 2026-05-07 09:02 | 53.17906 | 1.61760 | 32656 ft | 474 kts | 278° |
| 2026-05-07 09:02 | 53.18317 | 1.56307 | 32889 ft | 474 kts | 278° |
| 2026-05-07 09:02 | 53.18725 | 1.50854 | 33114 ft | 474 kts | 278° |
| 2026-05-07 09:03 | 53.19131 | 1.45403 | 33327 ft | 474 kts | 278° |
| 2026-05-07 09:03 | 53.19529 | 1.40018 | 33540 ft | 474 kts | 278° |
| 2026-05-07 09:03 | 53.19930 | 1.34568 | 33753 ft | 474 kts | 278° |
| 2026-05-07 09:03 | 53.20328 | 1.29111 | 33974 ft | 474 kts | 278° |
| 2026-05-07 09:04 | 53.20724 | 1.23659 | 34174 ft | 474 kts | 278° |
| 2026-05-07 09:04 | 53.21116 | 1.18207 | 34369 ft | 473 kts | 278° |
| 2026-05-07 09:04 | 53.21506 | 1.12760 | 34577 ft | 472 kts | 278° |
| 2026-05-07 09:04 | 53.21892 | 1.07335 | 34783 ft | 471 kts | 278° |
| 2026-05-07 09:05 | 53.22275 | 1.01910 | 34968 ft | 470 kts | 277° |
| 2026-05-07 09:05 | 53.22655 | 0.96499 | 35136 ft | 470 kts | 277° |
| 2026-05-07 09:05 | 53.23032 | 0.91091 | 35313 ft | 469 kts | 277° |
| 2026-05-07 09:05 | 53.23402 | 0.85750 | 35484 ft | 469 kts | 277° |
| 2026-05-07 09:06 | 53.23773 | 0.80358 | 35650 ft | 468 kts | 277° |
| 2026-05-07 09:06 | 53.24142 | 0.74964 | 35818 ft | 467 kts | 277° |
| 2026-05-07 09:06 | 53.24508 | 0.69578 | 35975 ft | 467 kts | 277° |
| 2026-05-07 09:06 | 53.24871 | 0.64187 | 36127 ft | 467 kts | 277° |
| 2026-05-07 09:07 | 53.25231 | 0.58803 | 36277 ft | 466 kts | 277° |
| 2026-05-07 09:07 | 53.25589 | 0.53423 | 36444 ft | 466 kts | 277° |
| 2026-05-07 09:07 | 53.25944 | 0.48047 | 36578 ft | 466 kts | 276° |
| 2026-05-07 09:07 | 53.26297 | 0.42673 | 36739 ft | 465 kts | 276° |
| 2026-05-07 09:08 | 53.26641 | 0.37385 | 36902 ft | 464 kts | 276° |
| 2026-05-07 09:08 | 53.26987 | 0.32036 | 37073 ft | 463 kts | 276° |
| 2026-05-07 09:08 | 53.27330 | 0.26688 | 37191 ft | 463 kts | 276° |
| 2026-05-07 09:08 | 53.27671 | 0.21342 | 37297 ft | 463 kts | 276° |
| 2026-05-07 09:09 | 53.28010 | 0.15990 | 37444 ft | 462 kts | 275° |
| 2026-05-07 09:09 | 53.28345 | 0.10657 | 37581 ft | 462 kts | 275° |
| 2026-05-07 09:09 | 53.28678 | 0.05319 | 37719 ft | 461 kts | 276° |
| 2026-05-07 09:09 | 53.29079 | 0.00011 | 37866 ft | 461 kts | 278° |
| 2026-05-07 09:10 | 53.29587 | -0.05281 | 37991 ft | 460 kts | 279° |
| 2026-05-07 09:10 | 53.30145 | -0.10552 | 38086 ft | 460 kts | 279° |
| 2026-05-07 09:10 | 53.31283 | -0.20991 | 38086 ft | 459 kts | 279° |
| 2026-05-07 09:11 | 53.32394 | -0.31493 | 38080 ft | 458 kts | 278° |
| 2026-05-07 09:11 | 53.33468 | -0.42005 | 38069 ft | 458 kts | 278° |
| 2026-05-07 09:12 | 53.34523 | -0.52524 | 38083 ft | 459 kts | 278° |
| 2026-05-07 09:12 | 53.35562 | -0.63051 | 38072 ft | 458 kts | 278° |
| 2026-05-07 09:13 | 53.36596 | -0.73504 | 38085 ft | 458 kts | 278° |
| 2026-05-07 09:13 | 53.37630 | -0.84042 | 38068 ft | 458 kts | 278° |
| 2026-05-07 09:14 | 53.38653 | -0.94583 | 38086 ft | 458 kts | 278° |
| 2026-05-07 09:14 | 53.39664 | -1.05117 | 38078 ft | 458 kts | 278° |
| 2026-05-07 09:15 | 53.40659 | -1.15591 | 38077 ft | 458 kts | 277° |
| 2026-05-07 09:15 | 53.41650 | -1.26129 | 38069 ft | 457 kts | 277° |
| 2026-05-07 09:16 | 53.42630 | -1.36664 | 38081 ft | 458 kts | 278° |
| 2026-05-07 09:16 | 53.43601 | -1.47203 | 38083 ft | 457 kts | 277° |
| 2026-05-07 09:17 | 53.44563 | -1.57743 | 38069 ft | 457 kts | 277° |
| 2026-05-07 09:17 | 53.45509 | -1.68215 | 38070 ft | 457 kts | 277° |
| 2026-05-07 09:18 | 53.46452 | -1.78755 | 38074 ft | 456 kts | 277° |
| 2026-05-07 09:18 | 53.47384 | -1.89293 | 38076 ft | 457 kts | 277° |
| 2026-05-07 09:19 | 53.48308 | -1.99844 | 38076 ft | 457 kts | 277° |
| 2026-05-07 09:19 | 53.49222 | -2.10392 | 38063 ft | 457 kts | 277° |
| 2026-05-07 09:20 | 53.50121 | -2.20879 | 38068 ft | 457 kts | 277° |
| 2026-05-07 09:20 | 53.51017 | -2.31449 | 38056 ft | 457 kts | 276° |
| 2026-05-07 09:21 | 53.51902 | -2.42007 | 38063 ft | 457 kts | 277° |
| 2026-05-07 09:21 | 53.52780 | -2.52581 | 38050 ft | 457 kts | 276° |
| 2026-05-07 09:22 | 53.53647 | -2.63146 | 38057 ft | 456 kts | 276° |
| 2026-05-07 09:22 | 53.54503 | -2.73699 | 38050 ft | 455 kts | 276° |
| 2026-05-07 09:23 | 53.55345 | -2.84182 | 38048 ft | 455 kts | 275° |
| 2026-05-07 09:23 | 53.56182 | -2.94728 | 38052 ft | 455 kts | 275° |
| 2026-05-07 09:24 | 53.57009 | -3.05274 | 38045 ft | 456 kts | 276° |
| 2026-05-07 09:24 | 53.57828 | -3.15841 | 38047 ft | 455 kts | 276° |
| 2026-05-07 09:25 | 53.58631 | -3.26335 | 38050 ft | 455 kts | 276° |
| 2026-05-07 09:25 | 53.59431 | -3.36912 | 38042 ft | 456 kts | 276° |
| 2026-05-07 09:26 | 53.60223 | -3.47497 | 38034 ft | 455 kts | 276° |
| 2026-05-07 09:26 | 53.61005 | -3.58078 | 38025 ft | 456 kts | 276° |
| 2026-05-07 09:27 | 53.61741 | -3.68676 | 38017 ft | 455 kts | 274° |
| 2026-05-07 09:28 | 53.62421 | -3.84557 | 38010 ft | 455 kts | 272° |
| 2026-05-07 09:28 | 53.62814 | -3.95196 | 38011 ft | 455 kts | 272° |
| 2026-05-07 09:29 | 53.63221 | -4.05842 | 38009 ft | 455 kts | 272° |
| 2026-05-07 09:29 | 53.63633 | -4.16483 | 38015 ft | 455 kts | 271° |
| 2026-05-07 09:30 | 53.64035 | -4.27012 | 38000 ft | 452 kts | 271° |
| 2026-05-07 09:30 | 53.64427 | -4.37588 | 38002 ft | 452 kts | 272° |
| 2026-05-07 09:31 | 53.64810 | -4.48158 | 37998 ft | 452 kts | 271° |
| 2026-05-07 09:31 | 53.65182 | -4.58731 | 38005 ft | 452 kts | 271° |
| 2026-05-07 09:32 | 53.65542 | -4.69248 | 37996 ft | 452 kts | 271° |
| 2026-05-07 09:32 | 53.65896 | -4.79823 | 37995 ft | 452 kts | 271° |
| 2026-05-07 09:33 | 53.66243 | -4.90397 | 37995 ft | 452 kts | 271° |
| 2026-05-07 09:33 | 53.66583 | -5.00968 | 37991 ft | 452 kts | 271° |
| 2026-05-07 09:34 | 53.66912 | -5.11473 | 37989 ft | 452 kts | 271° |
| 2026-05-07 09:34 | 53.67230 | -5.22047 | 37996 ft | 451 kts | 271° |
| 2026-05-07 09:35 | 53.67533 | -5.32621 | 37988 ft | 451 kts | 271° |
| 2026-05-07 09:35 | 53.67827 | -5.43195 | 37986 ft | 451 kts | 271° |
| 2026-05-07 09:36 | 53.68188 | -5.53760 | 37987 ft | 452 kts | 273° |
| 2026-05-07 09:36 | 53.68830 | -5.64305 | 37985 ft | 452 kts | 275° |
| 2026-05-07 09:37 | 53.69528 | -5.74770 | 37984 ft | 452 kts | 275° |
| 2026-05-07 09:37 | 53.70199 | -5.85317 | 37977 ft | 452 kts | 274° |
| 2026-05-07 09:38 | 53.70838 | -5.95861 | 37972 ft | 452 kts | 274° |
| 2026-05-07 09:38 | 53.71461 | -6.06418 | 37966 ft | 452 kts | 274° |
| 2026-05-07 09:39 | 53.72070 | -6.16906 | 37967 ft | 452 kts | 274° |
| 2026-05-07 09:39 | 53.72675 | -6.27462 | 37967 ft | 452 kts | 274° |
| 2026-05-07 09:40 | 53.73271 | -6.38021 | 37961 ft | 452 kts | 274° |
| 2026-05-07 09:40 | 53.73859 | -6.48589 | 37951 ft | 452 kts | 274° |
| 2026-05-07 09:41 | 53.74433 | -6.59085 | 37954 ft | 452 kts | 274° |
| 2026-05-07 09:41 | 53.75001 | -6.69652 | 37953 ft | 452 kts | 274° |
| 2026-05-07 09:42 | 53.75561 | -6.80225 | 37955 ft | 452 kts | 273° |
| 2026-05-07 09:42 | 53.76110 | -6.90799 | 37950 ft | 452 kts | 273° |
| 2026-05-07 09:43 | 53.76651 | -7.01372 | 37951 ft | 452 kts | 273° |
| 2026-05-07 09:43 | 53.77179 | -7.11884 | 37946 ft | 452 kts | 273° |
| 2026-05-07 09:44 | 53.77701 | -7.22468 | 37950 ft | 452 kts | 273° |
| 2026-05-07 09:44 | 53.78238 | -7.33044 | 37949 ft | 451 kts | 274° |
| 2026-05-07 09:45 | 53.78864 | -7.43581 | 37936 ft | 450 kts | 274° |
| 2026-05-07 09:45 | 53.79500 | -7.54041 | 37934 ft | 450 kts | 274° |
| 2026-05-07 09:46 | 53.80124 | -7.64578 | 37935 ft | 450 kts | 274° |
| 2026-05-07 09:46 | 53.80732 | -7.75113 | 37925 ft | 450 kts | 274° |
| 2026-05-07 09:47 | 53.81228 | -7.83877 | 37931 ft | 450 kts | 274° |
| 2026-05-07 09:47 | 53.81815 | -7.94422 | 37927 ft | 450 kts | 274° |
| 2026-05-07 09:48 | 53.82487 | -8.06682 | 37916 ft | 450 kts | 274° |
| 2026-05-07 09:48 | 53.82960 | -8.15456 | 37916 ft | 450 kts | 273° |
| 2026-05-07 09:49 | 53.83521 | -8.26013 | 37914 ft | 450 kts | 273° |
| 2026-05-07 09:49 | 53.84072 | -8.36572 | 37914 ft | 450 kts | 273° |
| 2026-05-07 09:50 | 53.84615 | -8.47132 | 37910 ft | 450 kts | 273° |
| 2026-05-07 09:50 | 53.85148 | -8.57707 | 37910 ft | 451 kts | 273° |
| 2026-05-07 09:51 | 53.85668 | -8.68211 | 37911 ft | 451 kts | 273° |
| 2026-05-07 09:51 | 53.86183 | -8.78786 | 37911 ft | 451 kts | 273° |
| 2026-05-07 09:52 | 53.86689 | -8.89364 | 37911 ft | 450 kts | 273° |
| 2026-05-07 09:52 | 53.87185 | -8.99943 | 37911 ft | 450 kts | 272° |
| 2026-05-07 09:53 | 53.87671 | -9.10506 | 37910 ft | 450 kts | 272° |
| 2026-05-07 09:53 | 53.88144 | -9.21005 | 37909 ft | 450 kts | 272° |
| 2026-05-07 09:54 | 53.88612 | -9.31576 | 37920 ft | 450 kts | 272° |
| 2026-05-07 09:54 | 53.89070 | -9.42129 | 37906 ft | 448 kts | 272° |
| 2026-05-07 09:55 | 53.89517 | -9.52661 | 37911 ft | 448 kts | 272° |
| 2026-05-07 09:55 | 53.89951 | -9.63116 | 37913 ft | 447 kts | 271° |
| 2026-05-07 09:56 | 53.90379 | -9.73638 | 37919 ft | 447 kts | 271° |
| 2026-05-07 09:56 | 53.90798 | -9.84159 | 37914 ft | 447 kts | 271° |
| 2026-05-07 09:57 | 53.91208 | -9.94679 | 37922 ft | 447 kts | 271° |
| 2026-05-07 09:57 | 53.91608 | -10.05207 | 37926 ft | 447 kts | 271° |
| 2026-05-07 09:58 | 53.91997 | -10.15670 | 37910 ft | 448 kts | 271° |
| 2026-05-07 09:58 | 53.92379 | -10.26208 | 37916 ft | 448 kts | 271° |
| 2026-05-07 09:59 | 53.92753 | -10.36759 | 37910 ft | 448 kts | 271° |
| 2026-05-07 09:59 | 53.93117 | -10.47306 | 37914 ft | 448 kts | 271° |
| 2026-05-07 10:00 | 53.93469 | -10.57783 | 37912 ft | 448 kts | 270° |
| 2026-05-07 10:00 | 53.93815 | -10.68330 | 37901 ft | 447 kts | 270° |
| 2026-05-07 10:01 | 53.94151 | -10.78870 | 37911 ft | 447 kts | 270° |
| 2026-05-07 10:01 | 53.94478 | -10.89417 | 37910 ft | 447 kts | 270° |
| 2026-05-07 10:02 | 53.94794 | -10.99896 | 37901 ft | 447 kts | 270° |
| 2026-05-07 10:02 | 53.95102 | -11.10445 | 37895 ft | 447 kts | 270° |
| 2026-05-07 10:03 | 53.95401 | -11.20996 | 37898 ft | 447 kts | 270° |
| 2026-05-07 10:03 | 53.95691 | -11.31547 | 37900 ft | 447 kts | 270° |
| 2026-05-07 10:04 | 53.95972 | -11.42094 | 37894 ft | 447 kts | 270° |
| 2026-05-07 10:04 | 53.96242 | -11.52547 | 37897 ft | 445 kts | 269° |
| 2026-05-07 10:05 | 53.96502 | -11.63047 | 37898 ft | 445 kts | 269° |
| 2026-05-07 10:05 | 53.96754 | -11.73545 | 37898 ft | 444 kts | 269° |
| 2026-05-07 10:06 | 53.96996 | -11.84029 | 37893 ft | 444 kts | 269° |
| 2026-05-07 10:06 | 53.97229 | -11.94513 | 37897 ft | 444 kts | 269° |
| 2026-05-07 10:07 | 53.97452 | -12.04925 | 37902 ft | 444 kts | 269° |
| 2026-05-07 10:07 | 53.97667 | -12.15410 | 37899 ft | 444 kts | 269° |
| 2026-05-07 10:08 | 53.97872 | -12.25896 | 37897 ft | 443 kts | 269° |
| 2026-05-07 10:08 | 53.98069 | -12.36350 | 37898 ft | 443 kts | 269° |
| 2026-05-07 10:09 | 53.98256 | -12.46812 | 37898 ft | 443 kts | 269° |
| 2026-05-07 10:09 | 53.98433 | -12.57203 | 37898 ft | 443 kts | 269° |
| 2026-05-07 10:10 | 53.98601 | -12.67660 | 37895 ft | 443 kts | 269° |
| 2026-05-07 10:10 | 53.98761 | -12.78116 | 37897 ft | 442 kts | 269° |
| 2026-05-07 10:11 | 53.98912 | -12.88559 | 37897 ft | 442 kts | 269° |
| 2026-05-07 10:11 | 53.99052 | -12.98927 | 37900 ft | 442 kts | 269° |
| 2026-05-07 10:12 | 53.99185 | -13.09366 | 37897 ft | 442 kts | 269° |
| 2026-05-07 10:12 | 53.99308 | -13.19805 | 37897 ft | 442 kts | 269° |
| 2026-05-07 10:13 | 53.99422 | -13.30240 | 37902 ft | 442 kts | 269° |
| 2026-05-07 10:13 | 53.99528 | -13.40678 | 37903 ft | 441 kts | 269° |
| 2026-05-07 10:14 | 53.99623 | -13.51029 | 37901 ft | 441 kts | 269° |
| 2026-05-07 10:14 | 53.99710 | -13.61442 | 37903 ft | 440 kts | 269° |
| 2026-05-07 10:15 | 53.99788 | -13.71842 | 37900 ft | 440 kts | 269° |
| 2026-05-07 10:15 | 53.99856 | -13.82245 | 37911 ft | 440 kts | 269° |
| 2026-05-07 10:16 | 53.99916 | -13.92657 | 37908 ft | 441 kts | 269° |
| 2026-05-07 10:16 | 53.99967 | -14.03001 | 37906 ft | 441 kts | 269° |
| 2026-05-07 10:17 | 54.00009 | -14.13413 | 37906 ft | 441 kts | 269° |
| 2026-05-07 10:17 | 54.00042 | -14.23830 | 37911 ft | 441 kts | 269° |
| 2026-05-07 10:18 | 54.00066 | -14.34238 | 37908 ft | 441 kts | 269° |
| 2026-05-07 10:18 | 54.00081 | -14.44588 | 37908 ft | 441 kts | 269° |
| 2026-05-07 10:19 | 54.00087 | -14.54996 | 37908 ft | 441 kts | 269° |
| 2026-05-07 10:19 | 54.00085 | -14.65411 | 37909 ft | 441 kts | 269° |
| 2026-05-07 10:20 | 54.00073 | -14.75823 | 37914 ft | 441 kts | 269° |
| 2026-05-07 10:20 | 54.00052 | -14.86244 | 37914 ft | 441 kts | 269° |
| 2026-05-07 10:21 | 54.00023 | -14.96588 | 37917 ft | 441 kts | 269° |
| 2026-05-07 10:21 | 54.00098 | -15.07003 | 37917 ft | 441 kts | 271° |
| 2026-05-07 10:22 | 54.00319 | -15.17414 | 37917 ft | 441 kts | 271° |
| 2026-05-07 10:22 | 54.00546 | -15.27830 | 37917 ft | 441 kts | 271° |
| 2026-05-07 10:23 | 54.00746 | -15.38252 | 37922 ft | 441 kts | 271° |
| 2026-05-07 10:23 | 54.00925 | -15.48606 | 37938 ft | 441 kts | 270° |
| 2026-05-07 10:24 | 54.01094 | -15.59037 | 37928 ft | 442 kts | 270° |
| 2026-05-07 10:24 | 54.01254 | -15.69490 | 37929 ft | 442 kts | 270° |
| 2026-05-07 10:25 | 54.01406 | -15.79943 | 37928 ft | 442 kts | 270° |
| 2026-05-07 10:25 | 54.01549 | -15.90397 | 37932 ft | 442 kts | 270° |
| 2026-05-07 10:26 | 54.01682 | -16.00779 | 37937 ft | 442 kts | 270° |
| 2026-05-07 10:26 | 54.01807 | -16.11255 | 37938 ft | 444 kts | 270° |
| 2026-05-07 10:27 | 54.01923 | -16.21749 | 37940 ft | 444 kts | 270° |
| 2026-05-07 10:27 | 54.02030 | -16.32244 | 37933 ft | 444 kts | 270° |
| 2026-05-07 10:28 | 54.02128 | -16.42740 | 37928 ft | 444 kts | 270° |
| 2026-05-07 10:28 | 54.02217 | -16.53164 | 37936 ft | 444 kts | 269° |
| 2026-05-07 10:29 | 54.02296 | -16.63662 | 37936 ft | 444 kts | 269° |
| 2026-05-07 10:29 | 54.02367 | -16.74168 | 37955 ft | 444 kts | 269° |
| 2026-05-07 10:30 | 54.02456 | -16.89909 | 37953 ft | 444 kts | 269° |
| 2026-05-07 10:30 | 54.02503 | -17.00339 | 37950 ft | 444 kts | 269° |
| 2026-05-07 10:31 | 54.02542 | -17.10836 | 37962 ft | 444 kts | 269° |
| 2026-05-07 10:31 | 54.02571 | -17.21343 | 37961 ft | 444 kts | 269° |
| 2026-05-07 10:32 | 54.02592 | -17.31849 | 37955 ft | 444 kts | 269° |
| 2026-05-07 10:32 | 54.02603 | -17.42291 | 37959 ft | 444 kts | 269° |
| 2026-05-07 10:33 | 54.02605 | -17.52798 | 37960 ft | 444 kts | 269° |
| 2026-05-07 10:33 | 54.02598 | -17.63316 | 37971 ft | 445 kts | 269° |
| 2026-05-07 10:34 | 54.02582 | -17.73828 | 37967 ft | 445 kts | 269° |
| 2026-05-07 10:34 | 54.02557 | -17.84272 | 37968 ft | 445 kts | 269° |
| 2026-05-07 10:35 | 54.02522 | -17.94781 | 37979 ft | 445 kts | 269° |
| 2026-05-07 10:35 | 54.02478 | -18.05299 | 37978 ft | 445 kts | 269° |
| 2026-05-07 10:36 | 54.02426 | -18.15804 | 38006 ft | 445 kts | 269° |
| 2026-05-07 10:36 | 54.02396 | -18.21066 | 38120 ft | 445 kts | 269° |
| 2026-05-07 10:36 | 54.02363 | -18.26323 | 38235 ft | 445 kts | 269° |
| 2026-05-07 10:37 | 54.02329 | -18.31583 | 38340 ft | 445 kts | 269° |
| 2026-05-07 10:37 | 54.02290 | -18.36776 | 38446 ft | 445 kts | 269° |
| 2026-05-07 10:37 | 54.02250 | -18.42035 | 38553 ft | 445 kts | 269° |
| 2026-05-07 10:37 | 54.02209 | -18.47294 | 38637 ft | 445 kts | 269° |
| 2026-05-07 10:38 | 54.02121 | -18.57838 | 38787 ft | 446 kts | 269° |
| 2026-05-07 10:38 | 54.02023 | -18.68384 | 38954 ft | 446 kts | 269° |
| 2026-05-07 10:39 | 54.01915 | -18.78956 | 38997 ft | 449 kts | 269° |
| 2026-05-07 10:39 | 54.01797 | -18.89531 | 38999 ft | 452 kts | 269° |
| 2026-05-07 10:40 | 54.01669 | -19.00222 | 39004 ft | 452 kts | 269° |
| 2026-05-07 10:40 | 54.01531 | -19.10906 | 39007 ft | 452 kts | 269° |
| 2026-05-07 10:41 | 54.01384 | -19.21580 | 39005 ft | 452 kts | 269° |
| 2026-05-07 10:41 | 54.01228 | -19.32186 | 39013 ft | 452 kts | 269° |
| 2026-05-07 10:42 | 54.01061 | -19.42868 | 39015 ft | 452 kts | 269° |
| 2026-05-07 10:42 | 54.00886 | -19.53544 | 39015 ft | 452 kts | 269° |
| 2026-05-07 10:43 | 54.00701 | -19.64224 | 39015 ft | 452 kts | 268° |
| 2026-05-07 10:43 | 54.00507 | -19.74841 | 39023 ft | 452 kts | 268° |
| 2026-05-07 10:44 | 54.00303 | -19.85511 | 39013 ft | 452 kts | 269° |
| 2026-05-07 10:44 | 54.00089 | -19.96203 | 39023 ft | 453 kts | 268° |
| 2026-05-07 10:45 | 53.99705 | -20.06881 | 39026 ft | 453 kts | 265° |
| 2026-05-07 10:45 | 53.99071 | -20.17536 | 39026 ft | 453 kts | 264° |
| 2026-05-07 10:46 | 53.98406 | -20.28114 | 39031 ft | 453 kts | 264° |
| 2026-05-07 10:46 | 53.97753 | -20.38765 | 39032 ft | 453 kts | 265° |
| 2026-05-07 10:47 | 53.97108 | -20.49425 | 39037 ft | 454 kts | 265° |
| 2026-05-07 10:47 | 53.96457 | -20.60090 | 39037 ft | 454 kts | 265° |
| 2026-05-07 10:48 | 53.95796 | -20.70758 | 39042 ft | 454 kts | 265° |
| 2026-05-07 10:48 | 53.95129 | -20.81350 | 39042 ft | 454 kts | 265° |
| 2026-05-07 10:49 | 53.94448 | -20.92012 | 39045 ft | 454 kts | 264° |
| 2026-05-07 10:49 | 53.93756 | -21.02675 | 39050 ft | 455 kts | 265° |
| 2026-05-07 10:50 | 53.93055 | -21.13336 | 39053 ft | 455 kts | 265° |
| 2026-05-07 10:50 | 53.92350 | -21.23922 | 39054 ft | 455 kts | 265° |
| 2026-05-07 10:51 | 53.91631 | -21.34582 | 39056 ft | 455 kts | 265° |
| 2026-05-07 10:51 | 53.90902 | -21.45231 | 39056 ft | 455 kts | 265° |
| 2026-05-07 10:52 | 53.90163 | -21.55890 | 39061 ft | 455 kts | 265° |
| 2026-05-07 10:52 | 53.89418 | -21.66485 | 39062 ft | 456 kts | 265° |
| 2026-05-07 10:53 | 53.88660 | -21.77148 | 39064 ft | 456 kts | 264° |
| 2026-05-07 10:53 | 53.87891 | -21.87806 | 39066 ft | 456 kts | 264° |
| 2026-05-07 10:54 | 53.87113 | -21.98466 | 39074 ft | 456 kts | 264° |
| 2026-05-07 10:54 | 53.86331 | -22.09048 | 39072 ft | 456 kts | 264° |
| 2026-05-07 10:55 | 53.85534 | -22.19701 | 39075 ft | 456 kts | 264° |
| 2026-05-07 10:55 | 53.84728 | -22.30342 | 39074 ft | 456 kts | 264° |
| 2026-05-07 10:56 | 53.83912 | -22.40992 | 39079 ft | 456 kts | 264° |
| 2026-05-07 10:56 | 53.83087 | -22.51627 | 39077 ft | 456 kts | 264° |
| 2026-05-07 10:57 | 53.82258 | -22.62196 | 39081 ft | 456 kts | 264° |
| 2026-05-07 10:57 | 53.81413 | -22.72844 | 39079 ft | 457 kts | 264° |
| 2026-05-07 10:58 | 53.80558 | -22.83492 | 39087 ft | 457 kts | 264° |
| 2026-05-07 10:58 | 53.79694 | -22.94131 | 39088 ft | 457 kts | 264° |
| 2026-05-07 10:59 | 53.78826 | -23.04697 | 39090 ft | 457 kts | 264° |
| 2026-05-07 10:59 | 53.77942 | -23.15333 | 39089 ft | 457 kts | 264° |
| 2026-05-07 11:00 | 53.77048 | -23.25981 | 39094 ft | 457 kts | 264° |
| 2026-05-07 11:00 | 53.76145 | -23.36620 | 39098 ft | 457 kts | 264° |
| 2026-05-07 11:01 | 53.75239 | -23.47187 | 39099 ft | 457 kts | 264° |
| 2026-05-07 11:01 | 53.74316 | -23.57819 | 39081 ft | 458 kts | 264° |
| 2026-05-07 11:02 | 53.73384 | -23.68457 | 39103 ft | 458 kts | 264° |
| 2026-05-07 11:02 | 53.72442 | -23.79096 | 39106 ft | 458 kts | 263° |
| 2026-05-07 11:03 | 53.71490 | -23.89730 | 39105 ft | 458 kts | 263° |
| 2026-05-07 11:03 | 53.70535 | -24.00288 | 39114 ft | 458 kts | 263° |
| 2026-05-07 11:04 | 53.69564 | -24.10917 | 39098 ft | 458 kts | 264° |
| 2026-05-07 11:04 | 53.68583 | -24.21551 | 39116 ft | 459 kts | 263° |
| 2026-05-07 11:05 | 53.67592 | -24.32181 | 39117 ft | 459 kts | 263° |
| 2026-05-07 11:05 | 53.66598 | -24.42742 | 39120 ft | 459 kts | 263° |
| 2026-05-07 11:06 | 53.65587 | -24.53371 | 39121 ft | 459 kts | 263° |
| 2026-05-07 11:06 | 53.64568 | -24.63992 | 39107 ft | 459 kts | 263° |
| 2026-05-07 11:07 | 53.63538 | -24.74614 | 39124 ft | 459 kts | 263° |
| 2026-05-07 11:07 | 53.62499 | -24.85235 | 39127 ft | 460 kts | 263° |
| 2026-05-07 11:08 | 53.61457 | -24.95781 | 39124 ft | 459 kts | 263° |
| 2026-05-07 11:08 | 53.60399 | -25.06392 | 39129 ft | 459 kts | 263° |
| 2026-05-07 11:09 | 53.59332 | -25.16992 | 39114 ft | 459 kts | 263° |
| 2026-05-07 11:09 | 53.58255 | -25.27595 | 39130 ft | 460 kts | 263° |
| 2026-05-07 11:10 | 53.57175 | -25.38129 | 39137 ft | 460 kts | 263° |
| 2026-05-07 11:10 | 53.56078 | -25.48728 | 39143 ft | 460 kts | 263° |
| 2026-05-07 11:11 | 53.54973 | -25.59314 | 39143 ft | 460 kts | 263° |
| 2026-05-07 11:11 | 53.53859 | -25.69891 | 39134 ft | 460 kts | 263° |
| 2026-05-07 11:12 | 53.52734 | -25.80476 | 39142 ft | 460 kts | 263° |
| 2026-05-07 11:12 | 53.51608 | -25.90980 | 39143 ft | 460 kts | 263° |
| 2026-05-07 11:13 | 53.50464 | -26.01556 | 39149 ft | 460 kts | 263° |
| 2026-05-07 11:13 | 53.49311 | -26.12127 | 39148 ft | 460 kts | 263° |
| 2026-05-07 11:14 | 53.48148 | -26.22694 | 39145 ft | 460 kts | 263° |
| 2026-05-07 11:14 | 53.46983 | -26.33189 | 39157 ft | 461 kts | 263° |
| 2026-05-07 11:15 | 53.45802 | -26.43752 | 39156 ft | 461 kts | 263° |
| 2026-05-07 11:15 | 53.44610 | -26.54309 | 39162 ft | 461 kts | 263° |
| 2026-05-07 11:16 | 53.43409 | -26.64863 | 39160 ft | 461 kts | 263° |
| 2026-05-07 11:16 | 53.42199 | -26.75406 | 39157 ft | 460 kts | 263° |
| 2026-05-07 11:17 | 53.40988 | -26.85878 | 39167 ft | 461 kts | 263° |
| 2026-05-07 11:17 | 53.39759 | -26.96413 | 39170 ft | 461 kts | 263° |
| 2026-05-07 11:18 | 53.38521 | -27.06945 | 39161 ft | 461 kts | 263° |
| 2026-05-07 11:18 | 53.37274 | -27.17465 | 39171 ft | 461 kts | 263° |
| 2026-05-07 11:19 | 53.36025 | -27.27919 | 39177 ft | 461 kts | 263° |
| 2026-05-07 11:19 | 53.34758 | -27.38437 | 39181 ft | 461 kts | 263° |
| 2026-05-07 11:20 | 53.33483 | -27.48944 | 39178 ft | 461 kts | 263° |
| 2026-05-07 11:20 | 53.32198 | -27.59455 | 39182 ft | 461 kts | 262° |
| 2026-05-07 11:21 | 53.30912 | -27.69880 | 39177 ft | 461 kts | 263° |
| 2026-05-07 11:21 | 53.29609 | -27.80366 | 39181 ft | 460 kts | 263° |
| 2026-05-07 11:22 | 53.28301 | -27.90816 | 39178 ft | 459 kts | 263° |
| 2026-05-07 11:22 | 53.26984 | -28.01262 | 39185 ft | 459 kts | 263° |
| 2026-05-07 11:23 | 53.25657 | -28.11702 | 39186 ft | 460 kts | 263° |
| 2026-05-07 11:23 | 53.24330 | -28.22068 | 39186 ft | 460 kts | 263° |
| 2026-05-07 11:24 | 53.22985 | -28.32491 | 39187 ft | 459 kts | 263° |
| 2026-05-07 11:24 | 53.21634 | -28.42888 | 39195 ft | 458 kts | 263° |
| 2026-05-07 11:25 | 53.20275 | -28.53275 | 39194 ft | 458 kts | 263° |
| 2026-05-07 11:25 | 53.18917 | -28.63579 | 39198 ft | 458 kts | 262° |
| 2026-05-07 11:26 | 53.17539 | -28.73963 | 39174 ft | 458 kts | 262° |
| 2026-05-07 11:26 | 53.16152 | -28.84324 | 39200 ft | 458 kts | 263° |
| 2026-05-07 11:27 | 53.14760 | -28.94663 | 39208 ft | 458 kts | 263° |
| 2026-05-07 11:27 | 53.13367 | -29.04936 | 39208 ft | 458 kts | 262° |
| 2026-05-07 11:28 | 53.11956 | -29.15267 | 39211 ft | 458 kts | 262° |
| 2026-05-07 11:28 | 53.10535 | -29.25593 | 39192 ft | 458 kts | 262° |
| 2026-05-07 11:29 | 53.09108 | -29.35894 | 39210 ft | 456 kts | 262° |
| 2026-05-07 11:29 | 53.07675 | -29.46170 | 39211 ft | 456 kts | 262° |
| 2026-05-07 11:30 | 53.06244 | -29.56365 | 39215 ft | 456 kts | 262° |
| 2026-05-07 11:30 | 53.04795 | -29.66618 | 39216 ft | 456 kts | 262° |
| 2026-05-07 11:31 | 53.03335 | -29.76877 | 39200 ft | 456 kts | 262° |
| 2026-05-07 11:31 | 53.01871 | -29.87080 | 39223 ft | 452 kts | 262° |
| 2026-05-07 11:32 | 52.99733 | -30.02232 | 39219 ft | 450 kts | 264° |
| 2026-05-07 11:33 | 52.98620 | -30.12426 | 39221 ft | 448 kts | 266° |
| 2026-05-07 11:33 | 52.97599 | -30.22635 | 39234 ft | 448 kts | 266° |
| 2026-05-07 11:34 | 52.96552 | -30.32826 | 39220 ft | 447 kts | 266° |
| 2026-05-07 11:34 | 52.95480 | -30.42909 | 39225 ft | 447 kts | 265° |
| 2026-05-07 11:35 | 52.94385 | -30.53046 | 39235 ft | 447 kts | 265° |
| 2026-05-07 11:35 | 52.93281 | -30.63175 | 39232 ft | 447 kts | 265° |
| 2026-05-07 11:36 | 52.92169 | -30.73303 | 39233 ft | 447 kts | 265° |
| 2026-05-07 11:36 | 52.91048 | -30.83427 | 39226 ft | 447 kts | 265° |
| 2026-05-07 11:37 | 52.89927 | -30.93469 | 39231 ft | 446 kts | 265° |
| 2026-05-07 11:37 | 52.88791 | -31.03573 | 39231 ft | 446 kts | 265° |
| 2026-05-07 11:38 | 52.87646 | -31.13670 | 39240 ft | 446 kts | 265° |
| 2026-05-07 11:38 | 52.86492 | -31.23768 | 39242 ft | 446 kts | 265° |
| 2026-05-07 11:39 | 52.85329 | -31.33859 | 39238 ft | 447 kts | 265° |
| 2026-05-07 11:39 | 52.84165 | -31.43887 | 39235 ft | 447 kts | 265° |
| 2026-05-07 11:40 | 52.82984 | -31.53979 | 39244 ft | 447 kts | 265° |
| 2026-05-07 11:40 | 52.81794 | -31.64066 | 39243 ft | 447 kts | 264° |
| 2026-05-07 11:41 | 52.80597 | -31.74141 | 39245 ft | 447 kts | 264° |
| 2026-05-07 11:41 | 52.79398 | -31.84146 | 39240 ft | 447 kts | 264° |
| 2026-05-07 11:42 | 52.78183 | -31.94226 | 39252 ft | 447 kts | 264° |
| 2026-05-07 11:42 | 52.76958 | -32.04295 | 39252 ft | 448 kts | 264° |
| 2026-05-07 11:43 | 52.75724 | -32.14370 | 39255 ft | 448 kts | 264° |
| 2026-05-07 11:43 | 52.74481 | -32.24438 | 39254 ft | 448 kts | 264° |
| 2026-05-07 11:44 | 52.73239 | -32.34430 | 39254 ft | 448 kts | 264° |
| 2026-05-07 11:44 | 52.71979 | -32.44487 | 39260 ft | 448 kts | 264° |
| 2026-05-07 11:45 | 52.70711 | -32.54538 | 39260 ft | 448 kts | 264° |
| 2026-05-07 11:45 | 52.69435 | -32.64581 | 39262 ft | 448 kts | 264° |
| 2026-05-07 11:46 | 52.68150 | -32.74624 | 39263 ft | 448 kts | 264° |
| 2026-05-07 11:46 | 52.66864 | -32.84595 | 39247 ft | 448 kts | 263° |
| 2026-05-07 11:47 | 52.65561 | -32.94630 | 39264 ft | 449 kts | 263° |
| 2026-05-07 11:47 | 52.64248 | -33.04673 | 39266 ft | 449 kts | 263° |
| 2026-05-07 11:48 | 52.62925 | -33.14715 | 39271 ft | 449 kts | 263° |
| 2026-05-07 11:48 | 52.61594 | -33.24750 | 39271 ft | 449 kts | 263° |
| 2026-05-07 11:49 | 52.60264 | -33.34713 | 39246 ft | 449 kts | 263° |
| 2026-05-07 11:49 | 52.58914 | -33.44756 | 39275 ft | 450 kts | 263° |
| 2026-05-07 11:50 | 52.57553 | -33.54810 | 39275 ft | 451 kts | 263° |
| 2026-05-07 11:50 | 52.56182 | -33.64863 | 39274 ft | 451 kts | 263° |
| 2026-05-07 11:51 | 52.54813 | -33.74835 | 39275 ft | 451 kts | 263° |
| 2026-05-07 11:51 | 52.53425 | -33.84874 | 39246 ft | 450 kts | 263° |
| 2026-05-07 11:52 | 52.52029 | -33.94915 | 39278 ft | 452 kts | 263° |
| 2026-05-07 11:52 | 52.50620 | -34.04977 | 39279 ft | 452 kts | 262° |
| 2026-05-07 11:53 | 52.49202 | -34.15035 | 39276 ft | 452 kts | 262° |
| 2026-05-07 11:53 | 52.47785 | -34.25016 | 39276 ft | 452 kts | 262° |
| 2026-05-07 11:54 | 52.46350 | -34.35057 | 39267 ft | 452 kts | 262° |
| 2026-05-07 11:54 | 52.44906 | -34.45098 | 39287 ft | 453 kts | 262° |
| 2026-05-07 11:55 | 52.43454 | -34.55133 | 39285 ft | 453 kts | 262° |
| 2026-05-07 11:55 | 52.42002 | -34.65095 | 39278 ft | 452 kts | 262° |
| 2026-05-07 11:56 | 52.40535 | -34.75098 | 39280 ft | 452 kts | 262° |
| 2026-05-07 11:56 | 52.39061 | -34.85087 | 39263 ft | 451 kts | 263° |
| 2026-05-07 11:57 | 52.37580 | -34.95057 | 39287 ft | 450 kts | 262° |
| 2026-05-07 11:57 | 52.36104 | -35.04938 | 39286 ft | 450 kts | 262° |
| 2026-05-07 11:58 | 52.34609 | -35.14877 | 39287 ft | 450 kts | 262° |
| 2026-05-07 11:58 | 52.33106 | -35.24811 | 39290 ft | 450 kts | 262° |
| 2026-05-07 11:59 | 52.31596 | -35.34731 | 39262 ft | 450 kts | 262° |
| 2026-05-07 11:59 | 52.30077 | -35.44640 | 39285 ft | 449 kts | 262° |
| 2026-05-07 12:00 | 52.28563 | -35.54462 | 39301 ft | 449 kts | 262° |
| 2026-05-07 12:00 | 52.27031 | -35.64343 | 39295 ft | 449 kts | 262° |
| 2026-05-07 12:01 | 52.25490 | -35.74223 | 39295 ft | 449 kts | 262° |
| 2026-05-07 12:01 | 52.23940 | -35.84095 | 39273 ft | 449 kts | 262° |
| 2026-05-07 12:02 | 52.22384 | -35.93952 | 39291 ft | 449 kts | 262° |
| 2026-05-07 12:02 | 52.20829 | -36.03735 | 39292 ft | 449 kts | 262° |
| 2026-05-07 12:03 | 52.19256 | -36.13581 | 39286 ft | 449 kts | 262° |
| 2026-05-07 12:03 | 52.17677 | -36.23401 | 39293 ft | 447 kts | 262° |
| 2026-05-07 12:04 | 52.16361 | -36.31544 | 39299 ft | 447 kts | 262° |
| 2026-05-07 12:04 | 52.14512 | -36.42924 | 39292 ft | 447 kts | 262° |
| 2026-05-07 12:05 | 52.12911 | -36.52714 | 39294 ft | 448 kts | 262° |
| 2026-05-07 12:05 | 52.11301 | -36.62500 | 39295 ft | 448 kts | 262° |
| 2026-05-07 12:06 | 52.09957 | -36.70629 | 39295 ft | 448 kts | 262° |
| 2026-05-07 12:06 | 52.08332 | -36.80402 | 39297 ft | 448 kts | 262° |
| 2026-05-07 12:07 | 52.06435 | -36.91738 | 39297 ft | 447 kts | 262° |
| 2026-05-07 12:07 | 52.05064 | -36.99889 | 39297 ft | 446 kts | 262° |
| 2026-05-07 12:08 | 52.03430 | -37.09551 | 39297 ft | 446 kts | 262° |
| 2026-05-07 12:08 | 52.01779 | -37.19266 | 39298 ft | 446 kts | 262° |
| 2026-05-07 12:09 | 52.00119 | -37.28976 | 39294 ft | 446 kts | 262° |
| 2026-05-07 12:09 | 51.98452 | -37.38669 | 39298 ft | 446 kts | 262° |
| 2026-05-07 12:10 | 51.96779 | -37.48346 | 39300 ft | 446 kts | 262° |
| 2026-05-07 12:10 | 51.95109 | -37.57957 | 39301 ft | 446 kts | 262° |
| 2026-05-07 12:11 | 51.93420 | -37.67618 | 39292 ft | 445 kts | 261° |
| 2026-05-07 12:11 | 51.91728 | -37.77236 | 39292 ft | 443 kts | 261° |
| 2026-05-07 12:12 | 51.90036 | -37.86823 | 39290 ft | 443 kts | 261° |
| 2026-05-07 12:12 | 51.88345 | -37.96347 | 39291 ft | 443 kts | 261° |
| 2026-05-07 12:13 | 51.86635 | -38.05925 | 39292 ft | 443 kts | 261° |
| 2026-05-07 12:13 | 51.84916 | -38.15503 | 39292 ft | 443 kts | 261° |
| 2026-05-07 12:14 | 51.83189 | -38.25073 | 39293 ft | 443 kts | 261° |
| 2026-05-07 12:14 | 51.81453 | -38.34646 | 39294 ft | 444 kts | 261° |
| 2026-05-07 12:15 | 51.79717 | -38.44166 | 39288 ft | 445 kts | 261° |
| 2026-05-07 12:15 | 51.77961 | -38.53746 | 39290 ft | 445 kts | 261° |
| 2026-05-07 12:16 | 51.76197 | -38.63314 | 39294 ft | 445 kts | 261° |
| 2026-05-07 12:16 | 51.74424 | -38.72886 | 39288 ft | 445 kts | 260° |
| 2026-05-07 12:17 | 51.72644 | -38.82452 | 39291 ft | 446 kts | 260° |
| 2026-05-07 12:17 | 51.70865 | -38.91960 | 39288 ft | 446 kts | 260° |
| 2026-05-07 12:18 | 51.69066 | -39.01525 | 39290 ft | 446 kts | 260° |
| 2026-05-07 12:18 | 51.67258 | -39.11086 | 39286 ft | 446 kts | 260° |
| 2026-05-07 12:19 | 51.65445 | -39.20626 | 39264 ft | 445 kts | 259° |
| 2026-05-07 12:19 | 51.63627 | -39.30139 | 39283 ft | 444 kts | 259° |
| 2026-05-07 12:20 | 51.61819 | -39.39565 | 39286 ft | 444 kts | 259° |
| 2026-05-07 12:20 | 51.59991 | -39.49045 | 39287 ft | 444 kts | 259° |
| 2026-05-07 12:21 | 51.58154 | -39.58520 | 39287 ft | 444 kts | 259° |
| 2026-05-07 12:21 | 51.56310 | -39.67986 | 39267 ft | 444 kts | 259° |
| 2026-05-07 12:22 | 51.54457 | -39.77455 | 39291 ft | 445 kts | 259° |
| 2026-05-07 12:22 | 51.52606 | -39.86864 | 39292 ft | 445 kts | 258° |
| 2026-05-07 12:23 | 51.50736 | -39.96325 | 39279 ft | 444 kts | 259° |
| 2026-05-07 12:23 | 51.49399 | -40.05906 | 39286 ft | 438 kts | 265° |
| 2026-05-07 12:24 | 51.48355 | -40.15534 | 39287 ft | 438 kts | 266° |
| 2026-05-07 12:24 | 51.47366 | -40.25103 | 39286 ft | 438 kts | 266° |
| 2026-05-07 12:25 | 51.46359 | -40.34738 | 39281 ft | 438 kts | 266° |
| 2026-05-07 12:25 | 51.45334 | -40.44372 | 39281 ft | 438 kts | 266° |
| 2026-05-07 12:26 | 51.44296 | -40.53998 | 39280 ft | 438 kts | 266° |
| 2026-05-07 12:26 | 51.43249 | -40.63629 | 39276 ft | 438 kts | 266° |
| 2026-05-07 12:27 | 51.42202 | -40.73184 | 39268 ft | 439 kts | 265° |
| 2026-05-07 12:27 | 51.41139 | -40.82811 | 39277 ft | 439 kts | 265° |
| 2026-05-07 12:28 | 51.40068 | -40.92442 | 39273 ft | 439 kts | 265° |
| 2026-05-07 12:28 | 51.38988 | -41.02072 | 39273 ft | 439 kts | 265° |
| 2026-05-07 12:29 | 51.37907 | -41.11636 | 39273 ft | 439 kts | 265° |
| 2026-05-07 12:29 | 51.36811 | -41.21256 | 39273 ft | 440 kts | 265° |
| 2026-05-07 12:30 | 51.35707 | -41.30879 | 39271 ft | 440 kts | 265° |
| 2026-05-07 12:30 | 51.34594 | -41.40509 | 39259 ft | 440 kts | 264° |
| 2026-05-07 12:31 | 51.33474 | -41.50122 | 39265 ft | 440 kts | 264° |
| 2026-05-07 12:31 | 51.32354 | -41.59662 | 39265 ft | 440 kts | 264° |
| 2026-05-07 12:32 | 51.31219 | -41.69258 | 39265 ft | 440 kts | 264° |
| 2026-05-07 12:32 | 51.30076 | -41.78856 | 39254 ft | 440 kts | 264° |
| 2026-05-07 12:33 | 51.28343 | -41.93276 | 39263 ft | 441 kts | 264° |
| 2026-05-07 12:33 | 51.27185 | -42.02819 | 39263 ft | 441 kts | 264° |
| 2026-05-07 12:34 | 51.26010 | -42.12434 | 39261 ft | 441 kts | 264° |
| 2026-05-07 12:34 | 51.24828 | -42.22037 | 39260 ft | 441 kts | 264° |
| 2026-05-07 12:35 | 51.23637 | -42.31642 | 39260 ft | 441 kts | 264° |
| 2026-05-07 12:35 | 51.22439 | -42.41238 | 39260 ft | 441 kts | 263° |
| 2026-05-07 12:36 | 51.21244 | -42.50745 | 39259 ft | 440 kts | 263° |
| 2026-05-07 12:36 | 51.20034 | -42.60302 | 39257 ft | 440 kts | 263° |
| 2026-05-07 12:37 | 51.18816 | -42.69858 | 39258 ft | 440 kts | 263° |
| 2026-05-07 12:37 | 51.17589 | -42.79416 | 39236 ft | 440 kts | 263° |
| 2026-05-07 12:38 | 51.16354 | -42.88976 | 39258 ft | 441 kts | 263° |
| 2026-05-07 12:38 | 51.15115 | -42.98493 | 39255 ft | 442 kts | 263° |
| 2026-05-07 12:39 | 51.13861 | -43.08064 | 39250 ft | 442 kts | 262° |
| 2026-05-07 12:39 | 51.12599 | -43.17634 | 39253 ft | 442 kts | 262° |
| 2026-05-07 12:40 | 51.11328 | -43.27204 | 39256 ft | 442 kts | 262° |
| 2026-05-07 12:40 | 51.10057 | -43.36712 | 39241 ft | 443 kts | 262° |
| 2026-05-07 12:41 | 51.08767 | -43.46307 | 39250 ft | 444 kts | 262° |
| 2026-05-07 12:41 | 51.07465 | -43.55908 | 39253 ft | 444 kts | 262° |
| 2026-05-07 12:42 | 51.06157 | -43.65501 | 39246 ft | 444 kts | 261° |
| 2026-05-07 12:42 | 51.04849 | -43.75029 | 39247 ft | 444 kts | 261° |
| 2026-05-07 12:43 | 51.03525 | -43.84614 | 39245 ft | 444 kts | 261° |
| 2026-05-07 12:43 | 51.02190 | -43.94221 | 39249 ft | 446 kts | 261° |
| 2026-05-07 12:44 | 51.00843 | -44.03846 | 39251 ft | 447 kts | 261° |
| 2026-05-07 12:44 | 50.99488 | -44.13466 | 39248 ft | 447 kts | 261° |
| 2026-05-07 12:45 | 50.98133 | -44.23023 | 39244 ft | 447 kts | 261° |
| 2026-05-07 12:45 | 50.96762 | -44.32635 | 39246 ft | 447 kts | 260° |
| 2026-05-07 12:46 | 50.95383 | -44.42247 | 39248 ft | 448 kts | 260° |
| 2026-05-07 12:46 | 50.93992 | -44.51872 | 39247 ft | 448 kts | 260° |
| 2026-05-07 12:47 | 50.92601 | -44.61436 | 39246 ft | 448 kts | 259° |
| 2026-05-07 12:47 | 50.91195 | -44.71052 | 39243 ft | 448 kts | 259° |
| 2026-05-07 12:48 | 50.89779 | -44.80671 | 39246 ft | 448 kts | 259° |
| 2026-05-07 12:48 | 50.88356 | -44.90278 | 39241 ft | 448 kts | 259° |
| 2026-05-07 12:49 | 50.86933 | -44.99830 | 39244 ft | 449 kts | 259° |
| 2026-05-07 12:49 | 50.85492 | -45.09442 | 39246 ft | 449 kts | 259° |
| 2026-05-07 12:50 | 50.84043 | -45.19048 | 39246 ft | 449 kts | 259° |
| 2026-05-07 12:50 | 50.82587 | -45.28645 | 39247 ft | 449 kts | 258° |
| 2026-05-07 12:51 | 50.81125 | -45.38222 | 39240 ft | 447 kts | 258° |
| 2026-05-07 12:51 | 50.79672 | -45.47677 | 39243 ft | 445 kts | 258° |
| 2026-05-07 12:52 | 50.78203 | -45.57190 | 39241 ft | 445 kts | 258° |
| 2026-05-07 12:52 | 50.76726 | -45.66691 | 39241 ft | 445 kts | 258° |
| 2026-05-07 12:53 | 50.75242 | -45.76191 | 39243 ft | 445 kts | 258° |
| 2026-05-07 12:53 | 50.73760 | -45.85617 | 39243 ft | 445 kts | 258° |
| 2026-05-07 12:54 | 50.72260 | -45.95101 | 39246 ft | 445 kts | 258° |
| 2026-05-07 12:54 | 50.70755 | -46.04566 | 39231 ft | 445 kts | 258° |
| 2026-05-07 12:55 | 50.69242 | -46.14024 | 39237 ft | 445 kts | 258° |
| 2026-05-07 12:55 | 50.67722 | -46.23478 | 39242 ft | 445 kts | 257° |
| 2026-05-07 12:56 | 50.66206 | -46.32846 | 39242 ft | 443 kts | 257° |
| 2026-05-07 12:56 | 50.64679 | -46.42232 | 39239 ft | 442 kts | 257° |
| 2026-05-07 12:57 | 50.63149 | -46.51588 | 39238 ft | 441 kts | 257° |
| 2026-05-07 12:57 | 50.61612 | -46.60934 | 39235 ft | 441 kts | 257° |
| 2026-05-07 12:58 | 50.60077 | -46.70212 | 39247 ft | 441 kts | 257° |
| 2026-05-07 12:58 | 50.58525 | -46.79547 | 39238 ft | 441 kts | 257° |
| 2026-05-07 12:59 | 50.56965 | -46.88876 | 39232 ft | 441 kts | 256° |
| 2026-05-07 12:59 | 50.55399 | -46.98189 | 39241 ft | 440 kts | 256° |
| 2026-05-07 13:00 | 50.53840 | -47.07414 | 39243 ft | 439 kts | 256° |
| 2026-05-07 13:00 | 50.52263 | -47.16697 | 39245 ft | 439 kts | 256° |
| 2026-05-07 13:01 | 50.50682 | -47.25952 | 39238 ft | 438 kts | 256° |
| 2026-05-07 13:01 | 50.49098 | -47.35172 | 39241 ft | 437 kts | 256° |
| 2026-05-07 13:02 | 50.47518 | -47.44327 | 39241 ft | 437 kts | 256° |
| 2026-05-07 13:02 | 50.45920 | -47.53534 | 39241 ft | 437 kts | 256° |
| 2026-05-07 13:03 | 50.44314 | -47.62738 | 39238 ft | 437 kts | 256° |
| 2026-05-07 13:03 | 50.42702 | -47.71931 | 39241 ft | 437 kts | 256° |
| 2026-05-07 13:04 | 50.41093 | -47.81062 | 39241 ft | 437 kts | 255° |
| 2026-05-07 13:04 | 50.39466 | -47.90242 | 39242 ft | 437 kts | 255° |
| 2026-05-07 13:05 | 50.37834 | -47.99411 | 39241 ft | 437 kts | 255° |
| 2026-05-07 13:05 | 50.36195 | -48.08563 | 39246 ft | 436 kts | 255° |
| 2026-05-07 13:06 | 50.34553 | -48.17698 | 39243 ft | 435 kts | 255° |
| 2026-05-07 13:06 | 50.32920 | -48.26725 | 39241 ft | 434 kts | 255° |
| 2026-05-07 13:07 | 50.31270 | -48.35809 | 39233 ft | 434 kts | 255° |
| 2026-05-07 13:07 | 50.29617 | -48.44858 | 39241 ft | 432 kts | 254° |
| 2026-05-07 13:08 | 50.27972 | -48.53823 | 39244 ft | 431 kts | 254° |
| 2026-05-07 13:08 | 50.26311 | -48.62833 | 39244 ft | 431 kts | 254° |
| 2026-05-07 13:09 | 50.24643 | -48.71833 | 39238 ft | 431 kts | 254° |
| 2026-05-07 13:09 | 50.22967 | -48.80833 | 39238 ft | 431 kts | 254° |
| 2026-05-07 13:10 | 50.21288 | -48.89810 | 39237 ft | 430 kts | 254° |
| 2026-05-07 13:10 | 50.19618 | -48.98691 | 39238 ft | 429 kts | 254° |
| 2026-05-07 13:11 | 50.17937 | -49.07587 | 39239 ft | 424 kts | 254° |
| 2026-05-07 13:11 | 50.16273 | -49.16353 | 39235 ft | 420 kts | 254° |
| 2026-05-07 13:12 | 50.14620 | -49.25022 | 39235 ft | 420 kts | 253° |
| 2026-05-07 13:12 | 50.12949 | -49.33746 | 39237 ft | 420 kts | 253° |
| 2026-05-07 13:13 | 50.11274 | -49.42449 | 39230 ft | 419 kts | 253° |
| 2026-05-07 13:13 | 50.09595 | -49.51138 | 39231 ft | 419 kts | 253° |
| 2026-05-07 13:14 | 50.07908 | -49.59822 | 39227 ft | 419 kts | 253° |
| 2026-05-07 13:14 | 50.06228 | -49.68439 | 39227 ft | 419 kts | 253° |
| 2026-05-07 13:15 | 50.04531 | -49.77098 | 39222 ft | 419 kts | 253° |
| 2026-05-07 13:15 | 50.02826 | -49.85757 | 39221 ft | 418 kts | 253° |
| 2026-05-07 13:16 | 50.01120 | -49.94387 | 39222 ft | 417 kts | 253° |
| 2026-05-07 13:16 | 49.99358 | -50.02921 | 39222 ft | 417 kts | 251° |
| 2026-05-07 13:17 | 49.97350 | -50.11383 | 39214 ft | 417 kts | 249° |
| 2026-05-07 13:17 | 49.95280 | -50.19804 | 39216 ft | 417 kts | 249° |
| 2026-05-07 13:18 | 49.93219 | -50.28233 | 39216 ft | 417 kts | 249° |
| 2026-05-07 13:18 | 49.91186 | -50.36595 | 39216 ft | 417 kts | 249° |
| 2026-05-07 13:19 | 49.89140 | -50.45009 | 39213 ft | 417 kts | 249° |
| 2026-05-07 13:19 | 49.87088 | -50.53416 | 39216 ft | 417 kts | 249° |
| 2026-05-07 13:20 | 49.85027 | -50.61820 | 39219 ft | 417 kts | 249° |
| 2026-05-07 13:20 | 49.82974 | -50.70159 | 39219 ft | 417 kts | 249° |
| 2026-05-07 13:21 | 49.80902 | -50.78548 | 39214 ft | 417 kts | 249° |
| 2026-05-07 13:21 | 49.78820 | -50.86938 | 39220 ft | 417 kts | 249° |
| 2026-05-07 13:22 | 49.76738 | -50.95303 | 39210 ft | 416 kts | 248° |
| 2026-05-07 13:22 | 49.74671 | -51.03576 | 39208 ft | 415 kts | 248° |
| 2026-05-07 13:23 | 49.72586 | -51.11888 | 39208 ft | 415 kts | 248° |
| 2026-05-07 13:23 | 49.70495 | -51.20194 | 39208 ft | 415 kts | 248° |
| 2026-05-07 13:24 | 49.68398 | -51.28492 | 39205 ft | 415 kts | 248° |
| 2026-05-07 13:24 | 49.66295 | -51.36783 | 39200 ft | 415 kts | 248° |
| 2026-05-07 13:25 | 49.64200 | -51.45013 | 39200 ft | 415 kts | 247° |
| 2026-05-07 13:25 | 49.62085 | -51.53290 | 39200 ft | 415 kts | 247° |
| 2026-05-07 13:26 | 49.59966 | -51.61557 | 39197 ft | 415 kts | 247° |
| 2026-05-07 13:26 | 49.57838 | -51.69822 | 39191 ft | 415 kts | 247° |
| 2026-05-07 13:27 | 49.55711 | -51.78057 | 39316 ft | 417 kts | 247° |
| 2026-05-07 13:27 | 49.53558 | -51.86363 | 39504 ft | 418 kts | 247° |
| 2026-05-07 13:28 | 49.52477 | -51.90519 | 39625 ft | 418 kts | 246° |
| 2026-05-07 13:28 | 49.51396 | -51.94672 | 39712 ft | 418 kts | 246° |
| 2026-05-07 13:28 | 49.49249 | -52.02995 | 39896 ft | 419 kts | 247° |
| 2026-05-07 13:29 | 49.47184 | -52.11327 | 40051 ft | 420 kts | 247° |
| 2026-05-07 13:29 | 49.45113 | -52.19739 | 40179 ft | 421 kts | 247° |
| 2026-05-07 13:30 | 49.43033 | -52.28134 | 40184 ft | 420 kts | 247° |
| 2026-05-07 13:30 | 49.40947 | -52.36493 | 40181 ft | 419 kts | 247° |
| 2026-05-07 13:31 | 49.38854 | -52.44836 | 40176 ft | 419 kts | 247° |
| 2026-05-07 13:31 | 49.36766 | -52.53127 | 40171 ft | 420 kts | 246° |
| 2026-05-07 13:32 | 49.34656 | -52.61478 | 40170 ft | 420 kts | 246° |
| 2026-05-07 13:32 | 49.32537 | -52.69831 | 40170 ft | 420 kts | 246° |
| 2026-05-07 13:33 | 49.30413 | -52.78178 | 40170 ft | 420 kts | 246° |
| 2026-05-07 13:33 | 49.28300 | -52.86455 | 40164 ft | 420 kts | 245° |
| 2026-05-07 13:34 | 49.25099 | -52.98929 | 40161 ft | 419 kts | 245° |
| 2026-05-07 13:35 | 49.22961 | -53.07219 | 40160 ft | 419 kts | 245° |
| 2026-05-07 13:35 | 49.20811 | -53.15525 | 40160 ft | 422 kts | 245° |
| 2026-05-07 13:36 | 49.18646 | -53.23855 | 40155 ft | 426 kts | 245° |
| 2026-05-07 13:36 | 49.16453 | -53.32272 | 40153 ft | 426 kts | 245° |
| 2026-05-07 13:37 | 49.14260 | -53.40659 | 40155 ft | 424 kts | 245° |
| 2026-05-07 13:37 | 49.12069 | -53.49008 | 40154 ft | 423 kts | 245° |
| 2026-05-07 13:38 | 49.09887 | -53.57286 | 40148 ft | 423 kts | 245° |
| 2026-05-07 13:38 | 49.07684 | -53.65616 | 40149 ft | 423 kts | 245° |
| 2026-05-07 13:39 | 49.05477 | -53.73932 | 40158 ft | 423 kts | 245° |
| 2026-05-07 13:39 | 49.03275 | -53.82202 | 40153 ft | 419 kts | 244° |
| 2026-05-07 13:40 | 49.01080 | -53.90412 | 40142 ft | 418 kts | 244° |
| 2026-05-07 13:40 | 48.98897 | -53.98551 | 40143 ft | 418 kts | 244° |
| 2026-05-07 13:41 | 48.96693 | -54.06735 | 40148 ft | 418 kts | 244° |
| 2026-05-07 13:41 | 48.94482 | -54.14920 | 40145 ft | 418 kts | 244° |
| 2026-05-07 13:42 | 48.92267 | -54.23089 | 40157 ft | 418 kts | 244° |
| 2026-05-07 13:42 | 48.90066 | -54.31184 | 40145 ft | 417 kts | 244° |
| 2026-05-07 13:43 | 48.87844 | -54.39321 | 40127 ft | 417 kts | 244° |
| 2026-05-07 13:43 | 48.85618 | -54.47448 | 40121 ft | 417 kts | 244° |
| 2026-05-07 13:44 | 48.83386 | -54.55568 | 40122 ft | 417 kts | 244° |
| 2026-05-07 13:44 | 48.81163 | -54.63627 | 40131 ft | 417 kts | 243° |
| 2026-05-07 13:45 | 48.78919 | -54.71733 | 40124 ft | 417 kts | 243° |
| 2026-05-07 13:45 | 48.76667 | -54.79843 | 40124 ft | 417 kts | 243° |
| 2026-05-07 13:46 | 48.74411 | -54.87940 | 40121 ft | 417 kts | 243° |
| 2026-05-07 13:46 | 48.72148 | -54.96034 | 40122 ft | 417 kts | 243° |
| 2026-05-07 13:47 | 48.69894 | -55.04067 | 40104 ft | 417 kts | 243° |
| 2026-05-07 13:47 | 48.67618 | -55.12151 | 40108 ft | 418 kts | 243° |
| 2026-05-07 13:48 | 48.65335 | -55.20234 | 40106 ft | 418 kts | 243° |
| 2026-05-07 13:48 | 48.63044 | -55.28317 | 40099 ft | 418 kts | 243° |
| 2026-05-07 13:49 | 48.60750 | -55.36386 | 40095 ft | 418 kts | 243° |
| 2026-05-07 13:49 | 48.58465 | -55.44394 | 40083 ft | 418 kts | 243° |
| 2026-05-07 13:50 | 48.56155 | -55.52458 | 40093 ft | 419 kts | 243° |
| 2026-05-07 13:50 | 48.53836 | -55.60532 | 40082 ft | 420 kts | 243° |
| 2026-05-07 13:51 | 48.51510 | -55.68602 | 40068 ft | 419 kts | 243° |
| 2026-05-07 13:51 | 48.49195 | -55.76611 | 40061 ft | 419 kts | 243° |
| 2026-05-07 13:52 | 48.46858 | -55.84663 | 40061 ft | 419 kts | 243° |
| 2026-05-07 13:52 | 48.44513 | -55.92717 | 40053 ft | 420 kts | 243° |
| 2026-05-07 13:53 | 48.42159 | -56.00776 | 40044 ft | 421 kts | 243° |
| 2026-05-07 13:53 | 48.39813 | -56.08783 | 40043 ft | 421 kts | 243° |
| 2026-05-07 13:54 | 48.37445 | -56.16837 | 40045 ft | 421 kts | 243° |
| 2026-05-07 13:54 | 48.35073 | -56.24880 | 40040 ft | 421 kts | 243° |
| 2026-05-07 13:55 | 48.32695 | -56.32916 | 40041 ft | 421 kts | 242° |
| 2026-05-07 13:55 | 48.30325 | -56.40896 | 40023 ft | 421 kts | 242° |
| 2026-05-07 13:56 | 48.27935 | -56.48919 | 40020 ft | 421 kts | 242° |
| 2026-05-07 13:56 | 48.25539 | -56.56935 | 40016 ft | 421 kts | 242° |
| 2026-05-07 13:57 | 48.23137 | -56.64946 | 40012 ft | 421 kts | 242° |
| 2026-05-07 13:57 | 48.20727 | -56.72957 | 40015 ft | 422 kts | 242° |
| 2026-05-07 13:58 | 48.18325 | -56.80916 | 40015 ft | 422 kts | 242° |
| 2026-05-07 13:58 | 48.15897 | -56.88936 | 40028 ft | 422 kts | 242° |
| 2026-05-07 13:59 | 48.13466 | -56.96940 | 40025 ft | 422 kts | 242° |
| 2026-05-07 13:59 | 48.11043 | -57.04890 | 40030 ft | 422 kts | 242° |
| 2026-05-07 14:00 | 48.08599 | -57.12886 | 40029 ft | 423 kts | 243° |
| 2026-05-07 14:00 | 48.06140 | -57.20904 | 40075 ft | 425 kts | 242° |
| 2026-05-07 14:01 | 48.03671 | -57.28927 | 40047 ft | 425 kts | 242° |
| 2026-05-07 14:01 | 48.01197 | -57.36940 | 40017 ft | 425 kts | 242° |
| 2026-05-07 14:02 | 47.98733 | -57.44898 | 40016 ft | 425 kts | 242° |
| 2026-05-07 14:02 | 47.96247 | -57.52900 | 40024 ft | 424 kts | 243° |
| 2026-05-07 14:03 | 47.93773 | -57.60842 | 40027 ft | 422 kts | 243° |
| 2026-05-07 14:03 | 47.91298 | -57.68756 | 40028 ft | 421 kts | 243° |
| 2026-05-07 14:04 | 47.88836 | -57.76606 | 40016 ft | 421 kts | 243° |
| 2026-05-07 14:04 | 47.86351 | -57.84502 | 40016 ft | 421 kts | 243° |
| 2026-05-07 14:05 | 47.83863 | -57.92387 | 40017 ft | 420 kts | 243° |
| 2026-05-07 14:05 | 47.81373 | -58.00252 | 40014 ft | 420 kts | 243° |
| 2026-05-07 14:06 | 47.78885 | -58.08089 | 39999 ft | 418 kts | 243° |
| 2026-05-07 14:06 | 47.76420 | -58.15825 | 39993 ft | 416 kts | 243° |
| 2026-05-07 14:07 | 47.73939 | -58.23592 | 39994 ft | 416 kts | 243° |
| 2026-05-07 14:07 | 47.71451 | -58.31351 | 39999 ft | 415 kts | 243° |
| 2026-05-07 14:08 | 47.68976 | -58.39052 | 39979 ft | 412 kts | 243° |
| 2026-05-07 14:08 | 47.66523 | -58.46661 | 39975 ft | 412 kts | 243° |
| 2026-05-07 14:09 | 47.64046 | -58.54319 | 39975 ft | 412 kts | 243° |
| 2026-05-07 14:09 | 47.61564 | -58.61968 | 39972 ft | 412 kts | 243° |
| 2026-05-07 14:10 | 47.59092 | -58.69565 | 39962 ft | 412 kts | 242° |
| 2026-05-07 14:10 | 47.56609 | -58.77176 | 39943 ft | 410 kts | 242° |
| 2026-05-07 14:11 | 47.54127 | -58.84759 | 39945 ft | 409 kts | 242° |
| 2026-05-07 14:11 | 47.51640 | -58.92336 | 39944 ft | 409 kts | 242° |
| 2026-05-07 14:12 | 47.49146 | -58.99908 | 39936 ft | 409 kts | 242° |
| 2026-05-07 14:12 | 47.46666 | -59.07418 | 39912 ft | 410 kts | 242° |
| 2026-05-07 14:13 | 47.44156 | -59.14998 | 39911 ft | 411 kts | 242° |
| 2026-05-07 14:13 | 47.41637 | -59.22580 | 39903 ft | 412 kts | 242° |
| 2026-05-07 14:14 | 47.39111 | -59.30164 | 39898 ft | 411 kts | 242° |
| 2026-05-07 14:14 | 47.36598 | -59.37686 | 39888 ft | 412 kts | 242° |
| 2026-05-07 14:15 | 47.34062 | -59.45255 | 39886 ft | 412 kts | 242° |
| 2026-05-07 14:15 | 47.31515 | -59.52832 | 39879 ft | 413 kts | 242° |
| 2026-05-07 14:16 | 47.28960 | -59.60413 | 39883 ft | 413 kts | 242° |
| 2026-05-07 14:16 | 47.26417 | -59.67937 | 39872 ft | 414 kts | 242° |
| 2026-05-07 14:17 | 47.23846 | -59.75518 | 39859 ft | 414 kts | 242° |
| 2026-05-07 14:17 | 47.21268 | -59.83101 | 39850 ft | 414 kts | 242° |
| 2026-05-07 14:18 | 47.18690 | -59.90661 | 39853 ft | 413 kts | 242° |
| 2026-05-07 14:18 | 47.16109 | -59.98210 | 39841 ft | 413 kts | 242° |
| 2026-05-07 14:19 | 47.13542 | -60.05696 | 39837 ft | 413 kts | 242° |
| 2026-05-07 14:19 | 47.10951 | -60.13227 | 39827 ft | 413 kts | 242° |
| 2026-05-07 14:20 | 47.08356 | -60.20751 | 39829 ft | 413 kts | 242° |
| 2026-05-07 14:20 | 47.05757 | -60.28264 | 39830 ft | 413 kts | 242° |
| 2026-05-07 14:21 | 47.03171 | -60.35718 | 39806 ft | 413 kts | 242° |
| 2026-05-07 14:21 | 47.00561 | -60.43218 | 39803 ft | 413 kts | 242° |
| 2026-05-07 14:22 | 46.97947 | -60.50711 | 39803 ft | 413 kts | 242° |
| 2026-05-07 14:22 | 46.95326 | -60.58202 | 39793 ft | 413 kts | 242° |
| 2026-05-07 14:23 | 46.92712 | -60.65650 | 39781 ft | 415 kts | 242° |
| 2026-05-07 14:23 | 46.90072 | -60.73150 | 39793 ft | 415 kts | 242° |
| 2026-05-07 14:24 | 46.87426 | -60.80649 | 39786 ft | 415 kts | 242° |
| 2026-05-07 14:24 | 46.84777 | -60.88136 | 39787 ft | 415 kts | 242° |
| 2026-05-07 14:25 | 46.82140 | -60.95564 | 39750 ft | 415 kts | 242° |
| 2026-05-07 14:25 | 46.79477 | -61.03049 | 39751 ft | 416 kts | 242° |
| 2026-05-07 14:26 | 46.76803 | -61.10542 | 39751 ft | 416 kts | 242° |
| 2026-05-07 14:26 | 46.74122 | -61.18033 | 39747 ft | 416 kts | 242° |
| 2026-05-07 14:27 | 46.71437 | -61.25513 | 39734 ft | 416 kts | 242° |
| 2026-05-07 14:27 | 46.68777 | -61.32904 | 39734 ft | 414 kts | 242° |
| 2026-05-07 14:28 | 46.66107 | -61.40301 | 39735 ft | 412 kts | 242° |
| 2026-05-07 14:28 | 46.63439 | -61.47671 | 39743 ft | 411 kts | 242° |
| 2026-05-07 14:29 | 46.60786 | -61.54982 | 39741 ft | 411 kts | 242° |
| 2026-05-07 14:29 | 46.58111 | -61.62333 | 39752 ft | 411 kts | 242° |
| 2026-05-07 14:30 | 46.55431 | -61.69678 | 39748 ft | 411 kts | 242° |
| 2026-05-07 14:30 | 46.52755 | -61.76990 | 39763 ft | 409 kts | 242° |
| 2026-05-07 14:31 | 46.50097 | -61.84236 | 39760 ft | 409 kts | 242° |
| 2026-05-07 14:31 | 46.47417 | -61.91520 | 39769 ft | 409 kts | 242° |
| 2026-05-07 14:32 | 46.44733 | -61.98795 | 39782 ft | 409 kts | 242° |
| 2026-05-07 14:32 | 46.42040 | -62.06075 | 39767 ft | 410 kts | 242° |
| 2026-05-07 14:33 | 46.39344 | -62.13344 | 39757 ft | 409 kts | 242° |
| 2026-05-07 14:33 | 46.36665 | -62.20548 | 39752 ft | 409 kts | 242° |
| 2026-05-07 14:34 | 46.33966 | -62.27786 | 39752 ft | 409 kts | 242° |
| 2026-05-07 14:34 | 46.31262 | -62.35019 | 39746 ft | 409 kts | 242° |
| 2026-05-07 14:35 | 46.28554 | -62.42241 | 39739 ft | 408 kts | 242° |
| 2026-05-07 14:35 | 46.25868 | -62.49386 | 39735 ft | 407 kts | 242° |
| 2026-05-07 14:36 | 46.23164 | -62.56562 | 39733 ft | 407 kts | 242° |
| 2026-05-07 14:36 | 46.20454 | -62.63734 | 39731 ft | 407 kts | 242° |
| 2026-05-07 14:37 | 46.17741 | -62.70896 | 39734 ft | 407 kts | 242° |
| 2026-05-07 14:37 | 46.14126 | -62.80406 | 39733 ft | 405 kts | 242° |
| 2026-05-07 14:38 | 46.10983 | -62.88648 | 39722 ft | 403 kts | 242° |
| 2026-05-07 14:38 | 46.08275 | -62.95732 | 39721 ft | 403 kts | 242° |
| 2026-05-07 14:39 | 46.06022 | -63.01611 | 39720 ft | 403 kts | 242° |
| 2026-05-07 14:39 | 46.03306 | -63.08683 | 39705 ft | 403 kts | 242° |
| 2026-05-07 14:40 | 46.00163 | -63.16838 | 39720 ft | 399 kts | 242° |
| 2026-05-07 14:40 | 45.97931 | -63.22616 | 39722 ft | 398 kts | 242° |
| 2026-05-07 14:41 | 45.95242 | -63.29566 | 39722 ft | 398 kts | 242° |
| 2026-05-07 14:41 | 45.92549 | -63.36505 | 39716 ft | 398 kts | 242° |
| 2026-05-07 14:42 | 45.89413 | -63.44564 | 39742 ft | 398 kts | 242° |
| 2026-05-07 14:42 | 45.87153 | -63.50355 | 39717 ft | 396 kts | 242° |
| 2026-05-07 14:43 | 45.84478 | -63.57195 | 39719 ft | 396 kts | 242° |
| 2026-05-07 14:43 | 45.81782 | -63.64074 | 39711 ft | 396 kts | 242° |
| 2026-05-07 14:44 | 45.79081 | -63.70945 | 39711 ft | 396 kts | 242° |
| 2026-05-07 14:44 | 45.76378 | -63.77805 | 39710 ft | 396 kts | 242° |
| 2026-05-07 14:45 | 45.73689 | -63.84614 | 39710 ft | 395 kts | 242° |
| 2026-05-07 14:45 | 45.70979 | -63.91459 | 39706 ft | 395 kts | 241° |
| 2026-05-07 14:46 | 45.68263 | -63.98302 | 39702 ft | 395 kts | 241° |
| 2026-05-07 14:46 | 45.65544 | -64.05135 | 39702 ft | 395 kts | 241° |
| 2026-05-07 14:47 | 45.62822 | -64.11959 | 39689 ft | 395 kts | 242° |
| 2026-05-07 14:47 | 45.60119 | -64.18719 | 39709 ft | 394 kts | 241° |
| 2026-05-07 14:48 | 45.57394 | -64.25519 | 39708 ft | 395 kts | 241° |
| 2026-05-07 14:48 | 45.54660 | -64.32323 | 39708 ft | 395 kts | 241° |
| 2026-05-07 14:49 | 45.51923 | -64.39116 | 39717 ft | 395 kts | 241° |
| 2026-05-07 14:49 | 45.49182 | -64.45905 | 39710 ft | 395 kts | 241° |
| 2026-05-07 14:50 | 45.46466 | -64.52614 | 39731 ft | 392 kts | 241° |
| 2026-05-07 14:50 | 45.43744 | -64.59322 | 39731 ft | 391 kts | 241° |
| 2026-05-07 14:51 | 45.41018 | -64.66023 | 39737 ft | 391 kts | 241° |
| 2026-05-07 14:51 | 45.38287 | -64.72723 | 39741 ft | 391 kts | 241° |
| 2026-05-07 14:52 | 45.35571 | -64.79367 | 39739 ft | 391 kts | 241° |
| 2026-05-07 14:52 | 45.32842 | -64.86029 | 39775 ft | 389 kts | 241° |
| 2026-05-07 14:53 | 45.30112 | -64.92682 | 39744 ft | 391 kts | 240° |
| 2026-05-07 14:53 | 45.27364 | -64.99357 | 39744 ft | 392 kts | 240° |
| 2026-05-07 14:54 | 45.24608 | -65.06035 | 39743 ft | 392 kts | 240° |
| 2026-05-07 14:54 | 45.21866 | -65.12664 | 39738 ft | 392 kts | 240° |
| 2026-05-07 14:55 | 45.19105 | -65.19323 | 39744 ft | 392 kts | 240° |
| 2026-05-07 14:55 | 45.16341 | -65.25975 | 39744 ft | 392 kts | 240° |
| 2026-05-07 14:56 | 45.13573 | -65.32622 | 39735 ft | 392 kts | 240° |
| 2026-05-07 14:56 | 45.10802 | -65.39260 | 39735 ft | 392 kts | 240° |
| 2026-05-07 14:57 | 45.08045 | -65.45846 | 39730 ft | 391 kts | 240° |
| 2026-05-07 14:57 | 45.05278 | -65.52441 | 39742 ft | 389 kts | 240° |
| 2026-05-07 14:58 | 45.02513 | -65.59018 | 39746 ft | 390 kts | 240° |
| 2026-05-07 14:58 | 44.99726 | -65.65635 | 39741 ft | 393 kts | 240° |
| 2026-05-07 14:59 | 44.96927 | -65.72263 | 39748 ft | 393 kts | 240° |
| 2026-05-07 14:59 | 44.94143 | -65.78840 | 39738 ft | 392 kts | 240° |
| 2026-05-07 15:00 | 44.91349 | -65.85421 | 39749 ft | 390 kts | 240° |
| 2026-05-07 15:00 | 44.88563 | -65.91972 | 39746 ft | 389 kts | 240° |
| 2026-05-07 15:01 | 44.85794 | -65.98469 | 39744 ft | 389 kts | 240° |
| 2026-05-07 15:01 | 44.83000 | -66.05010 | 39744 ft | 390 kts | 240° |
| 2026-05-07 15:02 | 44.80203 | -66.11540 | 39730 ft | 389 kts | 240° |
| 2026-05-07 15:02 | 44.77414 | -66.18037 | 39733 ft | 387 kts | 240° |
| 2026-05-07 15:03 | 44.74629 | -66.24513 | 39730 ft | 387 kts | 240° |
| 2026-05-07 15:03 | 44.71859 | -66.30938 | 39730 ft | 387 kts | 240° |
| 2026-05-07 15:04 | 44.69067 | -66.37399 | 39733 ft | 387 kts | 240° |
| 2026-05-07 15:04 | 44.66270 | -66.43855 | 39732 ft | 387 kts | 240° |
| 2026-05-07 15:05 | 44.63470 | -66.50303 | 39738 ft | 386 kts | 240° |
| 2026-05-07 15:05 | 44.60689 | -66.56695 | 39738 ft | 386 kts | 240° |
| 2026-05-07 15:06 | 44.57883 | -66.63127 | 39743 ft | 386 kts | 240° |
| 2026-05-07 15:06 | 44.55073 | -66.69556 | 39744 ft | 386 kts | 240° |
| 2026-05-07 15:07 | 44.52265 | -66.75964 | 39752 ft | 385 kts | 241° |
| 2026-05-07 15:07 | 44.49467 | -66.82333 | 39746 ft | 383 kts | 241° |
| 2026-05-07 15:08 | 44.46691 | -66.88643 | 39764 ft | 383 kts | 240° |
| 2026-05-07 15:08 | 44.43884 | -66.95011 | 39750 ft | 385 kts | 240° |
| 2026-05-07 15:09 | 44.41362 | -67.01605 | 39758 ft | 384 kts | 249° |
| 2026-05-07 15:09 | 44.39497 | -67.08603 | 39760 ft | 384 kts | 250° |
| 2026-05-07 15:10 | 44.37690 | -67.15629 | 39763 ft | 384 kts | 250° |
| 2026-05-07 15:10 | 44.35900 | -67.22608 | 39763 ft | 384 kts | 250° |
| 2026-05-07 15:11 | 44.34093 | -67.29636 | 39763 ft | 384 kts | 250° |
| 2026-05-07 15:11 | 44.32283 | -67.36659 | 39763 ft | 384 kts | 250° |
| 2026-05-07 15:12 | 44.30469 | -67.43676 | 39786 ft | 385 kts | 250° |
| 2026-05-07 15:12 | 44.28657 | -67.50662 | 39766 ft | 386 kts | 250° |
| 2026-05-07 15:13 | 44.26830 | -67.57688 | 39765 ft | 385 kts | 250° |
| 2026-05-07 15:13 | 44.24999 | -67.64710 | 39769 ft | 385 kts | 250° |
| 2026-05-07 15:14 | 44.23164 | -67.71722 | 39771 ft | 385 kts | 250° |
| 2026-05-07 15:14 | 44.21339 | -67.78677 | 39772 ft | 385 kts | 250° |
| 2026-05-07 15:15 | 44.19498 | -67.85676 | 39768 ft | 385 kts | 250° |
| 2026-05-07 15:15 | 44.17650 | -67.92674 | 39761 ft | 384 kts | 250° |
| 2026-05-07 15:16 | 44.15810 | -67.99628 | 39772 ft | 382 kts | 250° |
| 2026-05-07 15:16 | 44.13965 | -68.06577 | 39771 ft | 383 kts | 250° |
| 2026-05-07 15:17 | 44.12127 | -68.13482 | 39772 ft | 383 kts | 250° |
| 2026-05-07 15:17 | 44.10274 | -68.20423 | 39776 ft | 383 kts | 250° |
| 2026-05-07 15:18 | 44.08416 | -68.27363 | 39776 ft | 383 kts | 250° |
| 2026-05-07 15:18 | 44.06553 | -68.34300 | 39765 ft | 382 kts | 250° |
| 2026-05-07 15:19 | 44.04710 | -68.41145 | 39781 ft | 379 kts | 250° |
| 2026-05-07 15:19 | 44.02860 | -68.47997 | 39785 ft | 379 kts | 250° |
| 2026-05-07 15:20 | 44.00999 | -68.54870 | 39782 ft | 381 kts | 250° |
| 2026-05-07 15:20 | 43.99127 | -68.61762 | 39782 ft | 381 kts | 250° |
| 2026-05-07 15:21 | 43.97252 | -68.68646 | 39785 ft | 381 kts | 250° |
| 2026-05-07 15:21 | 43.95384 | -68.75484 | 39763 ft | 381 kts | 250° |
| 2026-05-07 15:22 | 43.93507 | -68.82336 | 39784 ft | 378 kts | 250° |
| 2026-05-07 15:22 | 43.91637 | -68.89143 | 39783 ft | 377 kts | 250° |
| 2026-05-07 15:23 | 43.89765 | -68.95939 | 39802 ft | 378 kts | 249° |
| 2026-05-07 15:23 | 43.87894 | -69.02712 | 39779 ft | 380 kts | 249° |
| 2026-05-07 15:24 | 43.85999 | -69.09556 | 39783 ft | 380 kts | 249° |
| 2026-05-07 15:24 | 43.84100 | -69.16390 | 39785 ft | 380 kts | 249° |
| 2026-05-07 15:25 | 43.82201 | -69.23205 | 39787 ft | 377 kts | 249° |
| 2026-05-07 15:25 | 43.80314 | -69.29961 | 39792 ft | 376 kts | 249° |
| 2026-05-07 15:26 | 43.78438 | -69.36659 | 39797 ft | 376 kts | 249° |
| 2026-05-07 15:26 | 43.76546 | -69.43396 | 39797 ft | 376 kts | 249° |
| 2026-05-07 15:27 | 43.74645 | -69.50148 | 39803 ft | 378 kts | 249° |
| 2026-05-07 15:27 | 43.72730 | -69.56930 | 39799 ft | 379 kts | 249° |
| 2026-05-07 15:28 | 43.70806 | -69.63721 | 39798 ft | 378 kts | 249° |
| 2026-05-07 15:28 | 43.68901 | -69.70431 | 39804 ft | 377 kts | 249° |
| 2026-05-07 15:29 | 43.66981 | -69.77175 | 39804 ft | 377 kts | 249° |
| 2026-05-07 15:29 | 43.65057 | -69.83915 | 39804 ft | 377 kts | 249° |
| 2026-05-07 15:30 | 43.63129 | -69.90651 | 39805 ft | 377 kts | 249° |
| 2026-05-07 15:30 | 43.61209 | -69.97341 | 39803 ft | 378 kts | 249° |
| 2026-05-07 15:31 | 43.59265 | -70.04094 | 39804 ft | 378 kts | 249° |
| 2026-05-07 15:31 | 43.57324 | -70.10818 | 39804 ft | 376 kts | 249° |
| 2026-05-07 15:32 | 43.55386 | -70.17516 | 39799 ft | 376 kts | 249° |
| 2026-05-07 15:32 | 43.53443 | -70.24213 | 39799 ft | 376 kts | 249° |
| 2026-05-07 15:33 | 43.51510 | -70.30858 | 39796 ft | 376 kts | 249° |
| 2026-05-07 15:33 | 43.49560 | -70.37543 | 39809 ft | 376 kts | 249° |
| 2026-05-07 15:34 | 43.47607 | -70.44220 | 39822 ft | 375 kts | 249° |
| 2026-05-07 15:34 | 43.45643 | -70.50869 | 39816 ft | 375 kts | 247° |
| 2026-05-07 15:35 | 43.43017 | -70.57021 | 39819 ft | 379 kts | 236° |
| 2026-05-07 15:35 | 43.39165 | -70.62071 | 39821 ft | 390 kts | 222° |
| 2026-05-07 15:36 | 43.34248 | -70.65533 | 39826 ft | 405 kts | 210° |
| 2026-05-07 15:36 | 43.28920 | -70.68136 | 39822 ft | 406 kts | 210° |
| 2026-05-07 15:37 | 43.23603 | -70.70712 | 39818 ft | 405 kts | 210° |
| 2026-05-07 15:37 | 43.18338 | -70.73283 | 39813 ft | 404 kts | 210° |
| 2026-05-07 15:38 | 43.13040 | -70.75872 | 39813 ft | 404 kts | 210° |
| 2026-05-07 15:38 | 43.07742 | -70.78459 | 39813 ft | 404 kts | 210° |
| 2026-05-07 15:39 | 43.02444 | -70.81043 | 39814 ft | 404 kts | 210° |
| 2026-05-07 15:39 | 42.97177 | -70.83606 | 39784 ft | 404 kts | 210° |
| 2026-05-07 15:40 | 42.91901 | -70.86166 | 39812 ft | 401 kts | 210° |
| 2026-05-07 15:40 | 42.86655 | -70.88712 | 39854 ft | 400 kts | 210° |
| 2026-05-07 15:41 | 42.81393 | -70.91264 | 39847 ft | 402 kts | 210° |
| 2026-05-07 15:41 | 42.76126 | -70.93804 | 39852 ft | 400 kts | 211° |
| 2026-05-07 15:42 | 42.70942 | -70.96300 | 39855 ft | 397 kts | 211° |
| 2026-05-07 15:42 | 42.65733 | -70.98809 | 39842 ft | 397 kts | 211° |
| 2026-05-07 15:43 | 42.60525 | -71.01311 | 39836 ft | 396 kts | 211° |
| 2026-05-07 15:43 | 42.55351 | -71.03790 | 39840 ft | 393 kts | 211° |
| 2026-05-07 15:44 | 42.50193 | -71.06261 | 39838 ft | 393 kts | 211° |
| 2026-05-07 15:44 | 42.45075 | -71.08709 | 39840 ft | 393 kts | 211° |
| 2026-05-07 15:45 | 42.39935 | -71.11157 | 39837 ft | 390 kts | 212° |
| 2026-05-07 15:45 | 42.34824 | -71.13592 | 39841 ft | 389 kts | 212° |
| 2026-05-07 15:46 | 42.27169 | -71.17233 | 39850 ft | 389 kts | 212° |
| 2026-05-07 15:47 | 42.22108 | -71.19631 | 39847 ft | 386 kts | 213° |
| 2026-05-07 15:47 | 42.17054 | -71.22021 | 39848 ft | 384 kts | 213° |
| 2026-05-07 15:48 | 42.12011 | -71.24407 | 39849 ft | 384 kts | 213° |
| 2026-05-07 15:48 | 42.06969 | -71.26787 | 39826 ft | 384 kts | 213° |
| 2026-05-07 15:49 | 42.01970 | -71.29139 | 39823 ft | 383 kts | 213° |
| 2026-05-07 15:49 | 41.99455 | -71.30324 | 39522 ft | 383 kts | 213° |
| 2026-05-07 15:49 | 41.96943 | -71.31502 | 39073 ft | 381 kts | 213° |
| 2026-05-07 15:49 | 41.94449 | -71.32670 | 38624 ft | 379 kts | 214° |
| 2026-05-07 15:50 | 41.91972 | -71.33829 | 38107 ft | 376 kts | 214° |
| 2026-05-07 15:50 | 41.89506 | -71.34985 | 37492 ft | 374 kts | 214° |
| 2026-05-07 15:50 | 41.87050 | -71.36137 | 36807 ft | 373 kts | 214° |
| 2026-05-07 15:50 | 41.84602 | -71.37283 | 36214 ft | 372 kts | 214° |
| 2026-05-07 15:51 | 41.82176 | -71.38416 | 35773 ft | 367 kts | 214° |
| 2026-05-07 15:51 | 41.79805 | -71.39520 | 35296 ft | 364 kts | 214° |
| 2026-05-07 15:51 | 41.77428 | -71.40630 | 34819 ft | 361 kts | 214° |
| 2026-05-07 15:51 | 41.75069 | -71.41741 | 34331 ft | 357 kts | 215° |
| 2026-05-07 15:52 | 41.72841 | -71.43059 | 33837 ft | 343 kts | 221° |
| 2026-05-07 15:52 | 41.70879 | -71.44736 | 33309 ft | 329 kts | 227° |
| 2026-05-07 15:52 | 41.69118 | -71.46622 | 32824 ft | 321 kts | 229° |
| 2026-05-07 15:52 | 41.67422 | -71.48522 | 32390 ft | 316 kts | 229° |
| 2026-05-07 15:53 | 41.65741 | -71.50419 | 31927 ft | 317 kts | 229° |
| 2026-05-07 15:53 | 41.64071 | -71.52301 | 31438 ft | 320 kts | 229° |
| 2026-05-07 15:53 | 41.62356 | -71.54228 | 30943 ft | 324 kts | 229° |
| 2026-05-07 15:53 | 41.60624 | -71.56166 | 30464 ft | 327 kts | 228° |
| 2026-05-07 15:54 | 41.58873 | -71.58119 | 29918 ft | 329 kts | 228° |
| 2026-05-07 15:54 | 41.57121 | -71.60068 | 29463 ft | 326 kts | 228° |
| 2026-05-07 15:54 | 41.55379 | -71.62003 | 29154 ft | 325 kts | 227° |
| 2026-05-07 15:54 | 41.53647 | -71.63926 | 28821 ft | 324 kts | 228° |
| 2026-05-07 15:55 | 41.51919 | -71.65845 | 28434 ft | 323 kts | 227° |
| 2026-05-07 15:55 | 41.50192 | -71.67763 | 28135 ft | 323 kts | 227° |
| 2026-05-07 15:55 | 41.48468 | -71.69675 | 27793 ft | 322 kts | 227° |
| 2026-05-07 15:55 | 41.46773 | -71.71552 | 27460 ft | 320 kts | 227° |
| 2026-05-07 15:56 | 41.45064 | -71.73445 | 27135 ft | 319 kts | 227° |
| 2026-05-07 15:56 | 41.43364 | -71.75327 | 26800 ft | 317 kts | 227° |
| 2026-05-07 15:56 | 41.41670 | -71.77200 | 26460 ft | 316 kts | 227° |
| 2026-05-07 15:56 | 41.39981 | -71.79067 | 26126 ft | 315 kts | 227° |
| 2026-05-07 15:57 | 41.38301 | -71.80924 | 25787 ft | 314 kts | 227° |
| 2026-05-07 15:57 | 41.36625 | -71.82774 | 25451 ft | 312 kts | 227° |
| 2026-05-07 15:57 | 41.34954 | -71.84618 | 25111 ft | 311 kts | 227° |
| 2026-05-07 15:57 | 41.33314 | -71.86426 | 24784 ft | 310 kts | 227° |
| 2026-05-07 15:58 | 41.31655 | -71.88254 | 24479 ft | 309 kts | 227° |
| 2026-05-07 15:58 | 41.30002 | -71.90074 | 24170 ft | 308 kts | 227° |
| 2026-05-07 15:58 | 41.28338 | -71.91909 | 23952 ft | 316 kts | 227° |
| 2026-05-07 15:58 | 41.26608 | -71.93824 | 23551 ft | 328 kts | 226° |
| 2026-05-07 15:59 | 41.24843 | -71.95763 | 23132 ft | 329 kts | 226° |
| 2026-05-07 15:59 | 41.23080 | -71.97693 | 22805 ft | 328 kts | 226° |
| 2026-05-07 15:59 | 41.21317 | -71.99622 | 22452 ft | 328 kts | 226° |
| 2026-05-07 15:59 | 41.19583 | -72.01520 | 22096 ft | 327 kts | 226° |
| 2026-05-07 16:00 | 41.17827 | -72.03442 | 21728 ft | 327 kts | 226° |
| 2026-05-07 16:00 | 41.16074 | -72.05360 | 21410 ft | 327 kts | 226° |
| 2026-05-07 16:00 | 41.14322 | -72.07276 | 21060 ft | 326 kts | 226° |
| 2026-05-07 16:00 | 41.12575 | -72.09189 | 20702 ft | 325 kts | 226° |
| 2026-05-07 16:01 | 41.10960 | -72.11248 | 20354 ft | 320 kts | 233° |
| 2026-05-07 16:01 | 41.09704 | -72.13651 | 20010 ft | 316 kts | 243° |
| 2026-05-07 16:01 | 41.08850 | -72.16327 | 19663 ft | 316 kts | 249° |
| 2026-05-07 16:01 | 41.08155 | -72.19088 | 19329 ft | 316 kts | 251° |
| 2026-05-07 16:02 | 41.07484 | -72.21854 | 18986 ft | 315 kts | 251° |
| 2026-05-07 16:02 | 41.06820 | -72.24582 | 18651 ft | 315 kts | 251° |
| 2026-05-07 16:02 | 41.06143 | -72.27341 | 18320 ft | 316 kts | 251° |
| 2026-05-07 16:02 | 41.05458 | -72.30119 | 17927 ft | 318 kts | 251° |
| 2026-05-07 16:03 | 41.04766 | -72.32910 | 17566 ft | 318 kts | 251° |
| 2026-05-07 16:03 | 41.04076 | -72.35689 | 17223 ft | 317 kts | 251° |
| 2026-05-07 16:03 | 41.03386 | -72.38458 | 16857 ft | 316 kts | 251° |
| 2026-05-07 16:03 | 41.02701 | -72.41204 | 16539 ft | 313 kts | 251° |
| 2026-05-07 16:04 | 41.02020 | -72.43933 | 16203 ft | 312 kts | 251° |
| 2026-05-07 16:04 | 41.01349 | -72.46618 | 15865 ft | 311 kts | 251° |
| 2026-05-07 16:04 | 41.00668 | -72.49338 | 15523 ft | 311 kts | 251° |
| 2026-05-07 16:04 | 40.99987 | -72.52052 | 15189 ft | 311 kts | 251° |
| 2026-05-07 16:05 | 40.99307 | -72.54761 | 14855 ft | 310 kts | 251° |
| 2026-05-07 16:05 | 40.98630 | -72.57456 | 14579 ft | 303 kts | 249° |
| 2026-05-07 16:05 | 40.97968 | -72.60038 | 14338 ft | 290 kts | 251° |
| 2026-05-07 16:05 | 40.97328 | -72.62525 | 14040 ft | 281 kts | 251° |
| 2026-05-07 16:06 | 40.96715 | -72.64940 | 13736 ft | 273 kts | 251° |
| 2026-05-07 16:06 | 40.96131 | -72.67296 | 13403 ft | 266 kts | 251° |
| 2026-05-07 16:06 | 40.95563 | -72.69579 | 13097 ft | 254 kts | 251° |
| 2026-05-07 16:06 | 40.95026 | -72.71723 | 12820 ft | 238 kts | 251° |
| 2026-05-07 16:07 | 40.94515 | -72.73756 | 12570 ft | 236 kts | 251° |
| 2026-05-07 16:07 | 40.93995 | -72.75818 | 12309 ft | 237 kts | 252° |
| 2026-05-07 16:07 | 40.93458 | -72.77873 | 12059 ft | 236 kts | 249° |
| 2026-05-07 16:07 | 40.92667 | -72.79780 | 11982 ft | 239 kts | 237° |
| 2026-05-07 16:08 | 40.91472 | -72.81346 | 11975 ft | 245 kts | 226° |
| 2026-05-07 16:08 | 40.90106 | -72.82708 | 11978 ft | 247 kts | 223° |
| 2026-05-07 16:08 | 40.88708 | -72.84031 | 11973 ft | 247 kts | 223° |
| 2026-05-07 16:08 | 40.87309 | -72.85353 | 11978 ft | 247 kts | 221° |
| 2026-05-07 16:09 | 40.85918 | -72.86680 | 11958 ft | 247 kts | 223° |
| 2026-05-07 16:09 | 40.84515 | -72.88013 | 11517 ft | 250 kts | 223° |
| 2026-05-07 16:09 | 40.83107 | -72.89351 | 11136 ft | 249 kts | 223° |
| 2026-05-07 16:09 | 40.81706 | -72.90685 | 10745 ft | 248 kts | 223° |
| 2026-05-07 16:10 | 40.80331 | -72.91999 | 10351 ft | 248 kts | 223° |
| 2026-05-07 16:10 | 40.78938 | -72.93332 | 9970 ft | 247 kts | 223° |
| 2026-05-07 16:10 | 40.77547 | -72.94666 | 9534 ft | 247 kts | 223° |
| 2026-05-07 16:10 | 40.76157 | -72.96008 | 9111 ft | 248 kts | 223° |
| 2026-05-07 16:11 | 40.74767 | -72.97356 | 8985 ft | 249 kts | 223° |
| 2026-05-07 16:11 | 40.73370 | -72.98717 | 8974 ft | 250 kts | 223° |
| 2026-05-07 16:11 | 40.71975 | -73.00083 | 8965 ft | 250 kts | 223° |
| 2026-05-07 16:11 | 40.70572 | -73.01457 | 8551 ft | 253 kts | 223° |
| 2026-05-07 16:12 | 40.69162 | -73.02840 | 8126 ft | 253 kts | 223° |
| 2026-05-07 16:12 | 40.67750 | -73.04230 | 7656 ft | 254 kts | 223° |
| 2026-05-07 16:12 | 40.66337 | -73.05636 | 7237 ft | 255 kts | 223° |
| 2026-05-07 16:12 | 40.64923 | -73.07054 | 6819 ft | 256 kts | 223° |
| 2026-05-07 16:13 | 40.63526 | -73.08459 | 6416 ft | 257 kts | 223° |
| 2026-05-07 16:13 | 40.62104 | -73.09899 | 5936 ft | 259 kts | 223° |
| 2026-05-07 16:13 | 40.60677 | -73.11363 | 5442 ft | 262 kts | 224° |
| 2026-05-07 16:13 | 40.59398 | -73.13046 | 4988 ft | 260 kts | 234° |
| 2026-05-07 16:14 | 40.58267 | -73.14923 | 4473 ft | 264 kts | 237° |
| 2026-05-07 16:14 | 40.57153 | -73.16844 | 4086 ft | 263 kts | 237° |
| 2026-05-07 16:14 | 40.56057 | -73.18756 | 3994 ft | 262 kts | 237° |
| 2026-05-07 16:14 | 40.54962 | -73.20674 | 3991 ft | 263 kts | 237° |
| 2026-05-07 16:15 | 40.53864 | -73.22595 | 3984 ft | 262 kts | 237° |
| 2026-05-07 16:15 | 40.52770 | -73.24511 | 3995 ft | 262 kts | 237° |
| 2026-05-07 16:15 | 40.51677 | -73.26425 | 3995 ft | 262 kts | 237° |
| 2026-05-07 16:15 | 40.50600 | -73.28311 | 3995 ft | 261 kts | 237° |
| 2026-05-07 16:16 | 40.49510 | -73.30222 | 3989 ft | 262 kts | 237° |
| 2026-05-07 16:16 | 40.48421 | -73.32145 | 3992 ft | 263 kts | 237° |
| 2026-05-07 16:16 | 40.47329 | -73.34076 | 3997 ft | 263 kts | 237° |
| 2026-05-07 16:16 | 40.46265 | -73.36029 | 3991 ft | 262 kts | 243° |
| 2026-05-07 16:17 | 40.45540 | -73.38195 | 3996 ft | 258 kts | 255° |
| 2026-05-07 16:17 | 40.45006 | -73.40440 | 3997 ft | 258 kts | 257° |
| 2026-05-07 16:17 | 40.44499 | -73.42698 | 3997 ft | 258 kts | 257° |
| 2026-05-07 16:17 | 40.43998 | -73.44944 | 3995 ft | 253 kts | 257° |
| 2026-05-07 16:18 | 40.43510 | -73.47129 | 3995 ft | 248 kts | 257° |
| 2026-05-07 16:18 | 40.43024 | -73.49295 | 3995 ft | 247 kts | 257° |
| 2026-05-07 16:18 | 40.42539 | -73.51459 | 3999 ft | 247 kts | 257° |
| 2026-05-07 16:18 | 40.42054 | -73.53623 | 3999 ft | 247 kts | 257° |
| 2026-05-07 16:19 | 40.41574 | -73.55760 | 4003 ft | 248 kts | 257° |
| 2026-05-07 16:19 | 40.41086 | -73.57931 | 3998 ft | 248 kts | 257° |
| 2026-05-07 16:19 | 40.40601 | -73.60101 | 4002 ft | 248 kts | 257° |
| 2026-05-07 16:19 | 40.40116 | -73.62267 | 3999 ft | 248 kts | 257° |
| 2026-05-07 16:20 | 40.39631 | -73.64435 | 3997 ft | 248 kts | 256° |
| 2026-05-07 16:20 | 40.39149 | -73.66604 | 3848 ft | 249 kts | 258° |
| 2026-05-07 16:20 | 40.38649 | -73.68793 | 3457 ft | 251 kts | 257° |
| 2026-05-07 16:20 | 40.38148 | -73.70984 | 3102 ft | 251 kts | 257° |
| 2026-05-07 16:21 | 40.37651 | -73.73172 | 3001 ft | 251 kts | 257° |
| 2026-05-07 16:21 | 40.37164 | -73.75338 | 2998 ft | 250 kts | 257° |
| 2026-05-07 16:21 | 40.36674 | -73.77524 | 2999 ft | 250 kts | 257° |
| 2026-05-07 16:21 | 40.36184 | -73.79712 | 2984 ft | 250 kts | 258° |
| 2026-05-07 16:22 | 40.35977 | -73.81943 | 2633 ft | 245 kts | 281° |
| 2026-05-07 16:22 | 40.36457 | -73.84030 | 2415 ft | 235 kts | 295° |
| 2026-05-07 16:22 | 40.37111 | -73.85971 | 2165 ft | 231 kts | 296° |
| 2026-05-07 16:22 | 40.37879 | -73.87789 | 2004 ft | 225 kts | 314° |
| 2026-05-07 16:23 | 40.39128 | -73.88849 | 1988 ft | 208 kts | 345° |
| 2026-05-07 16:23 | 40.40509 | -73.89119 | 1991 ft | 196 kts | 356° |
| 2026-05-07 16:23 | 40.41867 | -73.89202 | 1995 ft | 195 kts | 357° |
| 2026-05-07 16:23 | 40.43223 | -73.89263 | 2003 ft | 195 kts | 357° |
| 2026-05-07 16:24 | 40.44557 | -73.89309 | 1999 ft | 194 kts | 358° |
| 2026-05-07 16:24 | 40.45908 | -73.89332 | 1996 ft | 195 kts | 4° |
| 2026-05-07 16:24 | 40.47219 | -73.88889 | 2001 ft | 197 kts | 22° |
| 2026-05-07 16:24 | 40.48429 | -73.88047 | 2000 ft | 197 kts | 28° |
| 2026-05-07 16:25 | 40.49612 | -73.87119 | 2000 ft | 199 kts | 29° |
| 2026-05-07 16:25 | 40.50795 | -73.86192 | 2002 ft | 198 kts | 27° |
| 2026-05-07 16:25 | 40.51951 | -73.85296 | 2021 ft | 185 kts | 27° |
| 2026-05-07 16:25 | 40.53015 | -73.84473 | 1998 ft | 169 kts | 27° |
| 2026-05-07 16:26 | 40.53969 | -73.83732 | 1984 ft | 152 kts | 27° |
| 2026-05-07 16:26 | 40.54857 | -73.83041 | 1838 ft | 144 kts | 26° |
| 2026-05-07 16:26 | 40.55698 | -73.82384 | 1643 ft | 139 kts | 27° |
| 2026-05-07 16:26 | 40.56243 | -73.81958 | 1501 ft | 137 kts | 27° |
| 2026-05-07 16:27 | 40.57303 | -73.81128 | 1261 ft | 127 kts | 26° |
| 2026-05-07 16:27 | 40.58040 | -73.80553 | 1099 ft | 124 kts | 26° |
| 2026-05-07 16:27 | 40.58780 | -73.79975 | 921 ft | 123 kts | 26° |
| 2026-05-07 16:27 | 40.59520 | -73.79395 | 745 ft | 124 kts | 23° |
| 2026-05-07 16:28 | 40.60259 | -73.78818 | 579 ft | 123 kts | 26° |
| 2026-05-07 16:28 | 40.60994 | -73.78239 | 422 ft | 124 kts | 27° |
| 2026-05-07 16:28 | 40.61751 | -73.77656 | 267 ft | 128 kts | 27° |
| 2026-05-07 16:28 | 40.62518 | -73.77056 | 93 ft | 128 kts | 23° |
| 2026-05-07 16:29 | 40.63247 | -73.76499 | 31 ft | 104 kts | 31° |
| 2026-05-07 16:29 | 40.63696 | -73.76136 | 27 ft | 53 kts | 31° |
| 2026-05-07 16:29 | 40.63965 | -73.75929 | 28 ft | 35 kts | 27° |
| 2026-05-07 16:29 | 40.64127 | -73.75867 | 28 ft | 16 kts | 6° |
| 2026-05-07 16:30 | 40.64220 | -73.75869 | 30 ft | 11 kts | 349° |
| 2026-05-07 16:30 | 40.64269 | -73.75915 | 31 ft | 7 kts | 306° |
| 2026-05-07 16:30 | 40.64281 | -73.75964 | 32 ft | 5 kts | 276° |
| 2026-05-07 16:30 | 40.64280 | -73.76021 | 31 ft | 7 kts | 269° |
| 2026-05-07 16:31 | 40.64279 | -73.76103 | 30 ft | 11 kts | 268° |
| 2026-05-07 16:31 | 40.64277 | -73.76218 | 27 ft | 14 kts | 269° |
| 2026-05-07 16:31 | 40.64271 | -73.76356 | 26 ft | 16 kts | 267° |
| 2026-05-07 16:31 | 40.64267 | -73.76500 | 26 ft | 15 kts | 268° |
| 2026-05-07 16:32 | 40.64268 | -73.76627 | 24 ft | 13 kts | 279° |
| 2026-05-07 16:32 | 40.64308 | -73.76735 | 26 ft | 15 kts | 300° |
| 2026-05-07 16:32 | 40.64361 | -73.76853 | 24 ft | 15 kts | 300° |
| 2026-05-07 16:32 | 40.64404 | -73.76962 | 27 ft | 13 kts | 290° |
| 2026-05-07 16:33 | 40.64418 | -73.77069 | 28 ft | 11 kts | 264° |
| 2026-05-07 16:33 | 40.64375 | -73.77145 | 29 ft | 11 kts | 217° |
| 2026-05-07 16:33 | 40.64305 | -73.77203 | 26 ft | 13 kts | 211° |
| 2026-05-07 16:33 | 40.64230 | -73.77262 | 28 ft | 13 kts | 211° |
| 2026-05-07 16:34 | 40.64151 | -73.77323 | 28 ft | 14 kts | 210° |
| 2026-05-07 16:34 | 40.64056 | -73.77395 | 29 ft | 17 kts | 209° |
| 2026-05-07 16:34 | 40.63949 | -73.77478 | 29 ft | 18 kts | 211° |
| 2026-05-07 16:34 | 40.63834 | -73.77571 | 24 ft | 21 kts | 211° |
| 2026-05-07 16:35 | 40.63709 | -73.77668 | 25 ft | 21 kts | 211° |
| 2026-05-07 16:35 | 40.63580 | -73.77768 | 28 ft | 20 kts | 211° |
| 2026-05-07 16:35 | 40.63477 | -73.77849 | 28 ft | 15 kts | 212° |
| 2026-05-07 16:35 | 40.63410 | -73.77958 | 27 ft | 16 kts | 256° |
| 2026-05-07 16:36 | 40.63434 | -73.78095 | 28 ft | 15 kts | 298° |
| 2026-05-07 16:36 | 40.63482 | -73.78203 | 29 ft | 13 kts | 301° |
| 2026-05-07 16:36 | 40.63529 | -73.78276 | 29 ft | 8 kts | 335° |
| 2026-05-07 16:36 | 40.63585 | -73.78259 | 27 ft | 10 kts | 19° |
| 2026-05-07 16:37 | 40.63655 | -73.78260 | 27 ft | 11 kts | 352° |
| 2026-05-07 16:37 | 40.63733 | -73.78274 | 27 ft | 12 kts | 353° |
| 2026-05-07 16:37 | 40.63800 | -73.78285 | 27 ft | 8 kts | 353° |
| 2026-05-07 16:37 | 40.63851 | -73.78293 | 27 ft | 7 kts | 353° |
| 2026-05-07 16:38 | 40.63889 | -73.78286 | 27 ft | 5 kts | 27° |
| 2026-05-07 16:38 | 40.63904 | -73.78263 | 27 ft | 3 kts | 56° |
| 2026-05-07 16:38 | 40.63913 | -73.78238 | 27 ft | 3 kts | 68° |
| 2026-05-07 16:38 | 40.63918 | -73.78218 | 27 ft | 0 kts | 70° |
| 2026-05-07 16:41 | 40.63922 | -73.78207 | 27 ft | 0 kts | 72° |
| 2026-05-07 16:41 | 40.63919 | -73.78219 | 27 ft | 0 kts | 72° |
| 2026-05-07 16:42 | 40.63920 | -73.78213 | 27 ft | 0 kts | 72° |
| 2026-05-07 16:42 | 40.63922 | -73.78204 | 27 ft | 0 kts | 72° |
| 2026-05-07 16:42 | 40.63922 | -73.78206 | 27 ft | 0 kts | 72° |